UAL303 KLAX-PHKO
Flight info
| Callsign | UAL303 |
|---|---|
| Flight time | N/A |
| Altitude | 12000 |
| Route | ZILLI5 FICKY R578 FLITY/N0209F140 R578 FIZEL/N0214F160 R578 FITES OKALA VECKI9 |
| Aircraft | DC6/M-SDE1FGHIRWXY/S |
Departure
| Time | N/A |
|---|---|
| Airport | Los Angeles International Airport (KLAX) |
Arrival
| Time | 2026-04-26 18:26 |
|---|---|
| Airport | Ellison Onizuka Kona International Airport at Keāhole (PHKO) |
| Time | Latitude | Longitude | Altitude | Speed | Heading |
|---|---|---|---|---|---|
| 2026-04-26 13:26 | 28.05222 | -135.04258 | 14079 ft | 230 kts | 253° |
| 2026-04-26 13:26 | 28.04678 | -135.05957 | 14081 ft | 230 kts | 253° |
| 2026-04-26 13:26 | 28.04133 | -135.07660 | 14076 ft | 230 kts | 253° |
| 2026-04-26 13:26 | 28.03589 | -135.09358 | 14080 ft | 230 kts | 253° |
| 2026-04-26 13:27 | 28.03045 | -135.11060 | 14081 ft | 230 kts | 253° |
| 2026-04-26 13:27 | 28.02499 | -135.12761 | 14085 ft | 230 kts | 253° |
| 2026-04-26 13:27 | 28.01954 | -135.14462 | 14083 ft | 230 kts | 253° |
| 2026-04-26 13:27 | 28.01407 | -135.16166 | 14080 ft | 230 kts | 253° |
| 2026-04-26 13:28 | 28.00862 | -135.17866 | 14081 ft | 230 kts | 253° |
| 2026-04-26 13:28 | 28.00314 | -135.19571 | 14079 ft | 230 kts | 253° |
| 2026-04-26 13:28 | 27.99768 | -135.21272 | 14077 ft | 230 kts | 253° |
| 2026-04-26 13:28 | 27.99221 | -135.22972 | 14081 ft | 230 kts | 253° |
| 2026-04-26 13:29 | 27.98674 | -135.24671 | 14082 ft | 230 kts | 253° |
| 2026-04-26 13:29 | 27.98312 | -135.25797 | 14082 ft | 230 kts | 253° |
| 2026-04-26 13:29 | 27.97581 | -135.28071 | 14079 ft | 230 kts | 253° |
| 2026-04-26 13:29 | 27.97033 | -135.29771 | 14078 ft | 230 kts | 253° |
| 2026-04-26 13:30 | 27.96485 | -135.31472 | 14082 ft | 230 kts | 253° |
| 2026-04-26 13:30 | 27.95938 | -135.33168 | 14084 ft | 230 kts | 253° |
| 2026-04-26 13:30 | 27.95389 | -135.34870 | 14084 ft | 230 kts | 253° |
| 2026-04-26 13:30 | 27.94842 | -135.36568 | 14083 ft | 230 kts | 253° |
| 2026-04-26 13:31 | 27.94292 | -135.38269 | 14082 ft | 230 kts | 253° |
| 2026-04-26 13:31 | 27.93743 | -135.39969 | 14082 ft | 230 kts | 253° |
| 2026-04-26 13:31 | 27.93194 | -135.41666 | 14083 ft | 230 kts | 253° |
| 2026-04-26 13:31 | 27.92644 | -135.43368 | 14082 ft | 230 kts | 253° |
| 2026-04-26 13:32 | 27.92096 | -135.45065 | 14084 ft | 230 kts | 253° |
| 2026-04-26 13:32 | 27.91545 | -135.46766 | 14082 ft | 230 kts | 252° |
| 2026-04-26 13:32 | 27.90994 | -135.48467 | 14083 ft | 230 kts | 252° |
| 2026-04-26 13:32 | 27.90444 | -135.50165 | 14082 ft | 230 kts | 252° |
| 2026-04-26 13:33 | 27.89893 | -135.51864 | 14085 ft | 230 kts | 252° |
| 2026-04-26 13:33 | 27.89343 | -135.53564 | 14082 ft | 230 kts | 252° |
| 2026-04-26 13:33 | 27.88790 | -135.55266 | 14078 ft | 230 kts | 252° |
| 2026-04-26 13:33 | 27.88239 | -135.56965 | 14078 ft | 230 kts | 252° |
| 2026-04-26 13:34 | 27.87687 | -135.58664 | 14081 ft | 230 kts | 253° |
| 2026-04-26 13:34 | 27.87136 | -135.60362 | 14081 ft | 230 kts | 252° |
| 2026-04-26 13:34 | 27.86583 | -135.62062 | 14084 ft | 230 kts | 252° |
| 2026-04-26 13:34 | 27.86396 | -135.62637 | 14078 ft | 230 kts | 252° |
| 2026-04-26 13:35 | 27.85478 | -135.65460 | 14081 ft | 230 kts | 252° |
| 2026-04-26 13:35 | 27.84926 | -135.67157 | 14083 ft | 230 kts | 252° |
| 2026-04-26 13:35 | 27.84372 | -135.68855 | 14085 ft | 230 kts | 252° |
| 2026-04-26 13:35 | 27.83819 | -135.70555 | 14081 ft | 230 kts | 252° |
| 2026-04-26 13:36 | 27.83265 | -135.72252 | 14082 ft | 230 kts | 252° |
| 2026-04-26 13:36 | 27.82711 | -135.73951 | 14079 ft | 230 kts | 252° |
| 2026-04-26 13:36 | 27.82158 | -135.75648 | 14079 ft | 230 kts | 252° |
| 2026-04-26 13:36 | 27.81603 | -135.77348 | 14078 ft | 230 kts | 252° |
| 2026-04-26 13:37 | 27.81050 | -135.79044 | 14080 ft | 230 kts | 252° |
| 2026-04-26 13:37 | 27.80673 | -135.80195 | 14079 ft | 231 kts | 252° |
| 2026-04-26 13:37 | 27.80118 | -135.81893 | 14078 ft | 230 kts | 252° |
| 2026-04-26 13:37 | 27.79563 | -135.83590 | 14078 ft | 231 kts | 252° |
| 2026-04-26 13:38 | 27.79007 | -135.85289 | 14078 ft | 230 kts | 252° |
| 2026-04-26 13:38 | 27.78452 | -135.86987 | 14081 ft | 230 kts | 252° |
| 2026-04-26 13:38 | 27.77896 | -135.88682 | 14079 ft | 230 kts | 252° |
| 2026-04-26 13:38 | 27.77340 | -135.90381 | 14083 ft | 230 kts | 252° |
| 2026-04-26 13:39 | 27.76784 | -135.92078 | 14082 ft | 231 kts | 252° |
| 2026-04-26 13:39 | 27.76227 | -135.93778 | 14081 ft | 231 kts | 252° |
| 2026-04-26 13:39 | 27.75670 | -135.95474 | 14084 ft | 231 kts | 252° |
| 2026-04-26 13:39 | 27.75113 | -135.97172 | 14084 ft | 231 kts | 252° |
| 2026-04-26 13:40 | 27.74554 | -135.98872 | 14084 ft | 231 kts | 252° |
| 2026-04-26 13:40 | 27.73996 | -136.00572 | 14082 ft | 231 kts | 252° |
| 2026-04-26 13:40 | 27.73437 | -136.02270 | 14084 ft | 231 kts | 252° |
| 2026-04-26 13:40 | 27.72879 | -136.03968 | 14083 ft | 231 kts | 252° |
| 2026-04-26 13:41 | 27.72320 | -136.05668 | 14082 ft | 231 kts | 252° |
| 2026-04-26 13:41 | 27.71762 | -136.07363 | 14084 ft | 231 kts | 252° |
| 2026-04-26 13:41 | 27.71203 | -136.09060 | 14082 ft | 231 kts | 252° |
| 2026-04-26 13:41 | 27.70643 | -136.10760 | 14084 ft | 231 kts | 252° |
| 2026-04-26 13:42 | 27.70083 | -136.12457 | 14085 ft | 231 kts | 252° |
| 2026-04-26 13:42 | 27.69523 | -136.14156 | 14089 ft | 231 kts | 252° |
| 2026-04-26 13:42 | 27.68964 | -136.15852 | 14086 ft | 231 kts | 252° |
| 2026-04-26 13:42 | 27.68404 | -136.17546 | 14086 ft | 231 kts | 252° |
| 2026-04-26 13:43 | 27.67844 | -136.19244 | 14085 ft | 231 kts | 252° |
| 2026-04-26 13:43 | 27.67283 | -136.20940 | 14087 ft | 231 kts | 252° |
| 2026-04-26 13:43 | 27.66722 | -136.22639 | 14087 ft | 231 kts | 252° |
| 2026-04-26 13:43 | 27.66160 | -136.24337 | 14087 ft | 231 kts | 252° |
| 2026-04-26 13:44 | 27.65598 | -136.26035 | 14086 ft | 231 kts | 252° |
| 2026-04-26 13:44 | 27.65036 | -136.27733 | 14087 ft | 231 kts | 252° |
| 2026-04-26 13:44 | 27.64473 | -136.29431 | 14086 ft | 231 kts | 252° |
| 2026-04-26 13:44 | 27.63910 | -136.31133 | 14089 ft | 231 kts | 252° |
| 2026-04-26 13:45 | 27.63348 | -136.32829 | 14089 ft | 231 kts | 252° |
| 2026-04-26 13:45 | 27.62784 | -136.34529 | 14087 ft | 231 kts | 252° |
| 2026-04-26 13:45 | 27.62220 | -136.36227 | 14087 ft | 231 kts | 252° |
| 2026-04-26 13:45 | 27.61656 | -136.37926 | 14085 ft | 231 kts | 252° |
| 2026-04-26 13:46 | 27.61092 | -136.39625 | 14086 ft | 231 kts | 252° |
| 2026-04-26 13:46 | 27.60527 | -136.41324 | 14090 ft | 231 kts | 252° |
| 2026-04-26 13:46 | 27.59963 | -136.43023 | 14088 ft | 231 kts | 252° |
| 2026-04-26 13:46 | 27.59398 | -136.44718 | 14089 ft | 231 kts | 252° |
| 2026-04-26 13:47 | 27.58842 | -136.46394 | 14086 ft | 231 kts | 252° |
| 2026-04-26 13:47 | 27.58268 | -136.48113 | 14090 ft | 231 kts | 252° |
| 2026-04-26 13:47 | 27.57704 | -136.49809 | 14089 ft | 231 kts | 252° |
| 2026-04-26 13:47 | 27.57139 | -136.51505 | 14084 ft | 231 kts | 252° |
| 2026-04-26 13:48 | 27.56573 | -136.53204 | 14087 ft | 231 kts | 252° |
| 2026-04-26 13:48 | 27.56007 | -136.54900 | 14086 ft | 231 kts | 252° |
| 2026-04-26 13:48 | 27.55440 | -136.56598 | 14084 ft | 231 kts | 252° |
| 2026-04-26 13:48 | 27.54881 | -136.58272 | 14089 ft | 231 kts | 252° |
| 2026-04-26 13:49 | 27.54315 | -136.59967 | 14089 ft | 231 kts | 252° |
| 2026-04-26 13:49 | 27.53749 | -136.61662 | 14091 ft | 231 kts | 252° |
| 2026-04-26 13:49 | 27.53174 | -136.63383 | 14091 ft | 231 kts | 252° |
| 2026-04-26 13:49 | 27.52614 | -136.65055 | 14091 ft | 231 kts | 252° |
| 2026-04-26 13:50 | 27.52047 | -136.66751 | 14089 ft | 231 kts | 252° |
| 2026-04-26 13:50 | 27.51479 | -136.68447 | 14088 ft | 231 kts | 252° |
| 2026-04-26 13:50 | 27.50911 | -136.70142 | 14087 ft | 231 kts | 252° |
| 2026-04-26 13:50 | 27.50343 | -136.71837 | 14086 ft | 231 kts | 252° |
| 2026-04-26 13:51 | 27.49768 | -136.73554 | 14086 ft | 231 kts | 252° |
| 2026-04-26 13:51 | 27.49199 | -136.75249 | 14089 ft | 231 kts | 252° |
| 2026-04-26 13:51 | 27.48631 | -136.76943 | 14086 ft | 231 kts | 252° |
| 2026-04-26 13:51 | 27.48061 | -136.78640 | 14089 ft | 231 kts | 252° |
| 2026-04-26 13:52 | 27.47492 | -136.80335 | 14086 ft | 231 kts | 252° |
| 2026-04-26 13:52 | 27.46923 | -136.82029 | 14087 ft | 231 kts | 252° |
| 2026-04-26 13:52 | 27.46353 | -136.83723 | 14084 ft | 231 kts | 252° |
| 2026-04-26 13:52 | 27.45783 | -136.85416 | 14090 ft | 231 kts | 252° |
| 2026-04-26 13:53 | 27.45214 | -136.87109 | 14084 ft | 231 kts | 252° |
| 2026-04-26 13:53 | 27.44644 | -136.88801 | 14089 ft | 231 kts | 252° |
| 2026-04-26 13:53 | 27.44074 | -136.90496 | 14087 ft | 231 kts | 252° |
| 2026-04-26 13:53 | 27.43504 | -136.92187 | 14083 ft | 231 kts | 252° |
| 2026-04-26 13:54 | 27.42933 | -136.93878 | 14092 ft | 231 kts | 252° |
| 2026-04-26 13:54 | 27.42363 | -136.95567 | 14090 ft | 231 kts | 252° |
| 2026-04-26 13:54 | 27.41794 | -136.97257 | 14092 ft | 231 kts | 251° |
| 2026-04-26 13:55 | 27.40652 | -137.00637 | 14089 ft | 231 kts | 252° |
| 2026-04-26 13:55 | 27.40274 | -137.01756 | 14090 ft | 231 kts | 251° |
| 2026-04-26 13:55 | 27.38938 | -137.05707 | 14090 ft | 231 kts | 252° |
| 2026-04-26 13:56 | 27.38367 | -137.07397 | 14096 ft | 231 kts | 251° |
| 2026-04-26 13:56 | 27.37795 | -137.09086 | 14092 ft | 231 kts | 251° |
| 2026-04-26 13:56 | 27.37223 | -137.10773 | 14085 ft | 231 kts | 251° |
| 2026-04-26 13:56 | 27.36651 | -137.12462 | 14082 ft | 231 kts | 252° |
| 2026-04-26 13:57 | 27.36079 | -137.14150 | 14090 ft | 231 kts | 251° |
| 2026-04-26 13:57 | 27.35506 | -137.15838 | 14086 ft | 231 kts | 251° |
| 2026-04-26 13:57 | 27.34934 | -137.17525 | 14088 ft | 231 kts | 251° |
| 2026-04-26 13:57 | 27.34361 | -137.19213 | 14085 ft | 231 kts | 252° |
| 2026-04-26 13:58 | 27.33788 | -137.20900 | 14093 ft | 231 kts | 252° |
| 2026-04-26 13:58 | 27.33215 | -137.22587 | 14093 ft | 231 kts | 251° |
| 2026-04-26 13:58 | 27.32642 | -137.24272 | 14092 ft | 231 kts | 251° |
| 2026-04-26 13:58 | 27.32069 | -137.25957 | 14092 ft | 231 kts | 251° |
| 2026-04-26 13:59 | 27.31496 | -137.27644 | 14091 ft | 231 kts | 251° |
| 2026-04-26 13:59 | 27.30922 | -137.29327 | 14089 ft | 231 kts | 251° |
| 2026-04-26 13:59 | 27.30348 | -137.31014 | 14095 ft | 231 kts | 251° |
| 2026-04-26 14:00 | 27.28624 | -137.36073 | 14095 ft | 231 kts | 251° |
| 2026-04-26 14:00 | 27.28048 | -137.37760 | 14097 ft | 231 kts | 251° |
| 2026-04-26 14:00 | 27.27668 | -137.38874 | 14096 ft | 231 kts | 251° |
| 2026-04-26 14:01 | 27.26897 | -137.41130 | 14090 ft | 231 kts | 251° |
| 2026-04-26 14:01 | 27.26322 | -137.42815 | 14092 ft | 231 kts | 251° |
| 2026-04-26 14:01 | 27.25746 | -137.44499 | 14089 ft | 231 kts | 251° |
| 2026-04-26 14:01 | 27.25170 | -137.46185 | 14094 ft | 231 kts | 251° |
| 2026-04-26 14:02 | 27.24593 | -137.47871 | 14090 ft | 231 kts | 251° |
| 2026-04-26 14:02 | 27.24018 | -137.49552 | 14096 ft | 230 kts | 251° |
| 2026-04-26 14:02 | 27.23442 | -137.51234 | 14092 ft | 230 kts | 251° |
| 2026-04-26 14:02 | 27.22867 | -137.52912 | 14090 ft | 230 kts | 251° |
| 2026-04-26 14:03 | 27.22291 | -137.54593 | 14096 ft | 230 kts | 251° |
| 2026-04-26 14:03 | 27.21716 | -137.56273 | 14090 ft | 230 kts | 251° |
| 2026-04-26 14:03 | 27.21139 | -137.57953 | 14098 ft | 230 kts | 251° |
| 2026-04-26 14:03 | 27.20564 | -137.59630 | 14092 ft | 230 kts | 251° |
| 2026-04-26 14:04 | 27.19990 | -137.61299 | 14093 ft | 230 kts | 251° |
| 2026-04-26 14:04 | 27.19410 | -137.62989 | 14092 ft | 230 kts | 251° |
| 2026-04-26 14:04 | 27.18836 | -137.64659 | 14090 ft | 230 kts | 251° |
| 2026-04-26 14:04 | 27.18257 | -137.66344 | 14093 ft | 230 kts | 251° |
| 2026-04-26 14:05 | 27.17675 | -137.68034 | 14088 ft | 230 kts | 251° |
| 2026-04-26 14:05 | 27.17100 | -137.69707 | 14094 ft | 230 kts | 251° |
| 2026-04-26 14:05 | 27.16524 | -137.71381 | 14086 ft | 230 kts | 251° |
| 2026-04-26 14:05 | 27.15945 | -137.73060 | 14092 ft | 230 kts | 251° |
| 2026-04-26 14:06 | 27.15365 | -137.74744 | 14095 ft | 231 kts | 251° |
| 2026-04-26 14:06 | 27.14787 | -137.76421 | 14098 ft | 231 kts | 251° |
| 2026-04-26 14:06 | 27.14213 | -137.78086 | 14097 ft | 231 kts | 251° |
| 2026-04-26 14:06 | 27.13633 | -137.79765 | 14095 ft | 231 kts | 251° |
| 2026-04-26 14:07 | 27.13050 | -137.81456 | 14089 ft | 230 kts | 251° |
| 2026-04-26 14:07 | 27.12468 | -137.83140 | 14095 ft | 231 kts | 251° |
| 2026-04-26 14:07 | 27.11894 | -137.84802 | 14095 ft | 231 kts | 251° |
| 2026-04-26 14:07 | 27.11313 | -137.86482 | 14088 ft | 230 kts | 251° |
| 2026-04-26 14:08 | 27.10734 | -137.88159 | 14092 ft | 230 kts | 251° |
| 2026-04-26 14:08 | 27.10155 | -137.89831 | 14091 ft | 230 kts | 251° |
| 2026-04-26 14:08 | 27.09573 | -137.91515 | 14096 ft | 230 kts | 251° |
| 2026-04-26 14:08 | 27.08996 | -137.93178 | 14094 ft | 230 kts | 251° |
| 2026-04-26 14:09 | 27.08410 | -137.94871 | 14096 ft | 230 kts | 251° |
| 2026-04-26 14:09 | 27.07830 | -137.96543 | 14095 ft | 230 kts | 251° |
| 2026-04-26 14:09 | 27.07254 | -137.98206 | 14097 ft | 230 kts | 251° |
| 2026-04-26 14:09 | 27.06667 | -137.99897 | 14092 ft | 230 kts | 251° |
| 2026-04-26 14:10 | 27.06092 | -138.01556 | 14091 ft | 230 kts | 251° |
| 2026-04-26 14:10 | 27.05509 | -138.03233 | 14085 ft | 230 kts | 251° |
| 2026-04-26 14:10 | 27.04924 | -138.04919 | 14095 ft | 230 kts | 251° |
| 2026-04-26 14:10 | 27.04346 | -138.06581 | 14093 ft | 230 kts | 251° |
| 2026-04-26 14:11 | 27.03184 | -138.09922 | 14088 ft | 230 kts | 251° |
| 2026-04-26 14:11 | 27.02596 | -138.11613 | 14093 ft | 230 kts | 251° |
| 2026-04-26 14:11 | 27.02014 | -138.13284 | 14095 ft | 230 kts | 251° |
| 2026-04-26 14:12 | 27.01433 | -138.14952 | 14088 ft | 230 kts | 251° |
| 2026-04-26 14:12 | 27.00851 | -138.16623 | 14093 ft | 230 kts | 251° |
| 2026-04-26 14:12 | 27.00269 | -138.18293 | 14088 ft | 230 kts | 251° |
| 2026-04-26 14:12 | 26.99689 | -138.19959 | 14091 ft | 230 kts | 251° |
| 2026-04-26 14:13 | 26.98522 | -138.23293 | 14089 ft | 229 kts | 251° |
| 2026-04-26 14:13 | 26.98136 | -138.24394 | 14088 ft | 229 kts | 251° |
| 2026-04-26 14:13 | 26.97364 | -138.26601 | 14097 ft | 229 kts | 251° |
| 2026-04-26 14:14 | 26.96781 | -138.28262 | 14085 ft | 229 kts | 251° |
| 2026-04-26 14:14 | 26.96199 | -138.29924 | 14098 ft | 229 kts | 251° |
| 2026-04-26 14:14 | 26.95615 | -138.31587 | 14085 ft | 229 kts | 251° |
| 2026-04-26 14:14 | 26.95034 | -138.33245 | 14094 ft | 229 kts | 251° |
| 2026-04-26 14:15 | 26.94451 | -138.34905 | 14086 ft | 229 kts | 251° |
| 2026-04-26 14:15 | 26.94057 | -138.36026 | 14090 ft | 229 kts | 251° |
| 2026-04-26 14:15 | 26.93475 | -138.37686 | 14096 ft | 229 kts | 251° |
| 2026-04-26 14:15 | 26.92890 | -138.39344 | 14092 ft | 229 kts | 251° |
| 2026-04-26 14:16 | 26.92308 | -138.41003 | 14093 ft | 229 kts | 251° |
| 2026-04-26 14:16 | 26.91724 | -138.42661 | 14099 ft | 229 kts | 251° |
| 2026-04-26 14:16 | 26.91141 | -138.44322 | 14099 ft | 229 kts | 251° |
| 2026-04-26 14:16 | 26.90555 | -138.45981 | 14097 ft | 229 kts | 251° |
| 2026-04-26 14:17 | 26.89970 | -138.47644 | 14097 ft | 229 kts | 251° |
| 2026-04-26 14:17 | 26.89385 | -138.49304 | 14098 ft | 229 kts | 251° |
| 2026-04-26 14:17 | 26.88800 | -138.50966 | 14097 ft | 229 kts | 251° |
| 2026-04-26 14:17 | 26.88213 | -138.52626 | 14099 ft | 229 kts | 251° |
| 2026-04-26 14:18 | 26.87628 | -138.54286 | 14098 ft | 229 kts | 251° |
| 2026-04-26 14:18 | 26.87041 | -138.55947 | 14099 ft | 229 kts | 251° |
| 2026-04-26 14:18 | 26.86455 | -138.57607 | 14099 ft | 229 kts | 251° |
| 2026-04-26 14:18 | 26.85868 | -138.59267 | 14097 ft | 229 kts | 251° |
| 2026-04-26 14:19 | 26.85281 | -138.60930 | 14096 ft | 229 kts | 251° |
| 2026-04-26 14:19 | 26.84693 | -138.62592 | 14098 ft | 229 kts | 251° |
| 2026-04-26 14:19 | 26.84106 | -138.64251 | 14099 ft | 229 kts | 251° |
| 2026-04-26 14:19 | 26.83518 | -138.65912 | 14100 ft | 229 kts | 251° |
| 2026-04-26 14:20 | 26.82931 | -138.67572 | 14100 ft | 229 kts | 251° |
| 2026-04-26 14:20 | 26.82342 | -138.69235 | 14098 ft | 229 kts | 251° |
| 2026-04-26 14:20 | 26.81754 | -138.70894 | 14098 ft | 229 kts | 251° |
| 2026-04-26 14:20 | 26.81165 | -138.72553 | 14098 ft | 229 kts | 251° |
| 2026-04-26 14:21 | 26.80576 | -138.74215 | 14096 ft | 229 kts | 251° |
| 2026-04-26 14:21 | 26.79988 | -138.75874 | 14092 ft | 229 kts | 251° |
| 2026-04-26 14:21 | 26.79397 | -138.77534 | 14101 ft | 229 kts | 251° |
| 2026-04-26 14:21 | 26.78809 | -138.79194 | 14098 ft | 229 kts | 251° |
| 2026-04-26 14:22 | 26.78218 | -138.80853 | 14099 ft | 230 kts | 251° |
| 2026-04-26 14:22 | 26.77629 | -138.82513 | 14100 ft | 230 kts | 251° |
| 2026-04-26 14:22 | 26.77038 | -138.84174 | 14099 ft | 230 kts | 251° |
| 2026-04-26 14:22 | 26.76447 | -138.85835 | 14097 ft | 230 kts | 251° |
| 2026-04-26 14:23 | 26.75856 | -138.87497 | 14098 ft | 230 kts | 251° |
| 2026-04-26 14:23 | 26.75263 | -138.89159 | 14095 ft | 230 kts | 251° |
| 2026-04-26 14:23 | 26.74671 | -138.90822 | 14095 ft | 230 kts | 251° |
| 2026-04-26 14:23 | 26.74079 | -138.92484 | 14094 ft | 230 kts | 251° |
| 2026-04-26 14:24 | 26.73486 | -138.94148 | 14094 ft | 230 kts | 251° |
| 2026-04-26 14:24 | 26.72892 | -138.95814 | 14097 ft | 230 kts | 251° |
| 2026-04-26 14:24 | 26.72297 | -138.97478 | 14096 ft | 230 kts | 251° |
| 2026-04-26 14:24 | 26.71704 | -138.99143 | 14097 ft | 230 kts | 251° |
| 2026-04-26 14:25 | 26.71109 | -139.00806 | 14099 ft | 230 kts | 251° |
| 2026-04-26 14:25 | 26.70515 | -139.02470 | 14097 ft | 230 kts | 251° |
| 2026-04-26 14:25 | 26.69920 | -139.04132 | 14097 ft | 230 kts | 251° |
| 2026-04-26 14:25 | 26.69326 | -139.05796 | 14095 ft | 230 kts | 251° |
| 2026-04-26 14:26 | 26.68730 | -139.07459 | 14098 ft | 230 kts | 251° |
| 2026-04-26 14:26 | 26.68135 | -139.09122 | 14096 ft | 230 kts | 251° |
| 2026-04-26 14:26 | 26.67540 | -139.10785 | 14098 ft | 230 kts | 251° |
| 2026-04-26 14:26 | 26.66944 | -139.12449 | 14096 ft | 230 kts | 251° |
| 2026-04-26 14:27 | 26.66344 | -139.14123 | 14095 ft | 231 kts | 251° |
| 2026-04-26 14:27 | 26.65749 | -139.15782 | 14094 ft | 231 kts | 251° |
| 2026-04-26 14:27 | 26.65152 | -139.17446 | 14095 ft | 231 kts | 251° |
| 2026-04-26 14:27 | 26.64559 | -139.19099 | 14099 ft | 231 kts | 251° |
| 2026-04-26 14:28 | 26.63956 | -139.20778 | 14095 ft | 231 kts | 251° |
| 2026-04-26 14:28 | 26.63361 | -139.22436 | 14094 ft | 231 kts | 251° |
| 2026-04-26 14:28 | 26.62759 | -139.24109 | 14095 ft | 231 kts | 251° |
| 2026-04-26 14:28 | 26.62164 | -139.25768 | 14093 ft | 231 kts | 251° |
| 2026-04-26 14:29 | 26.61559 | -139.27448 | 14098 ft | 231 kts | 251° |
| 2026-04-26 14:29 | 26.60964 | -139.29101 | 14095 ft | 231 kts | 251° |
| 2026-04-26 14:29 | 26.60362 | -139.30773 | 14095 ft | 231 kts | 251° |
| 2026-04-26 14:29 | 26.59761 | -139.32445 | 14095 ft | 231 kts | 251° |
| 2026-04-26 14:30 | 26.59160 | -139.34112 | 14097 ft | 231 kts | 251° |
| 2026-04-26 14:30 | 26.58562 | -139.35773 | 14100 ft | 231 kts | 251° |
| 2026-04-26 14:30 | 26.57958 | -139.37442 | 14097 ft | 231 kts | 251° |
| 2026-04-26 14:30 | 26.57362 | -139.39099 | 14098 ft | 231 kts | 251° |
| 2026-04-26 14:31 | 26.56757 | -139.40774 | 14100 ft | 231 kts | 251° |
| 2026-04-26 14:31 | 26.56155 | -139.42444 | 14096 ft | 231 kts | 251° |
| 2026-04-26 14:31 | 26.55559 | -139.44093 | 14098 ft | 231 kts | 251° |
| 2026-04-26 14:31 | 26.54958 | -139.45756 | 14097 ft | 231 kts | 251° |
| 2026-04-26 14:32 | 26.54351 | -139.47435 | 14098 ft | 231 kts | 251° |
| 2026-04-26 14:32 | 26.53754 | -139.49088 | 14098 ft | 231 kts | 251° |
| 2026-04-26 14:32 | 26.53145 | -139.50768 | 14099 ft | 232 kts | 250° |
| 2026-04-26 14:32 | 26.52540 | -139.52441 | 14101 ft | 232 kts | 251° |
| 2026-04-26 14:33 | 26.51932 | -139.54121 | 14097 ft | 232 kts | 250° |
| 2026-04-26 14:33 | 26.51327 | -139.55788 | 14097 ft | 232 kts | 250° |
| 2026-04-26 14:33 | 26.50728 | -139.57443 | 14097 ft | 232 kts | 251° |
| 2026-04-26 14:33 | 26.50122 | -139.59115 | 14102 ft | 232 kts | 250° |
| 2026-04-26 14:34 | 26.49518 | -139.60779 | 14099 ft | 232 kts | 250° |
| 2026-04-26 14:34 | 26.48905 | -139.62471 | 14100 ft | 232 kts | 250° |
| 2026-04-26 14:34 | 26.48304 | -139.64124 | 14098 ft | 232 kts | 250° |
| 2026-04-26 14:34 | 26.47694 | -139.65805 | 14100 ft | 233 kts | 250° |
| 2026-04-26 14:35 | 26.47089 | -139.67470 | 14101 ft | 233 kts | 250° |
| 2026-04-26 14:35 | 26.46476 | -139.69155 | 14101 ft | 233 kts | 250° |
| 2026-04-26 14:35 | 26.45868 | -139.70829 | 14100 ft | 233 kts | 250° |
| 2026-04-26 14:35 | 26.45258 | -139.72504 | 14100 ft | 233 kts | 250° |
| 2026-04-26 14:36 | 26.44645 | -139.74189 | 14100 ft | 233 kts | 250° |
| 2026-04-26 14:36 | 26.44040 | -139.75850 | 14099 ft | 233 kts | 250° |
| 2026-04-26 14:36 | 26.43425 | -139.77539 | 14099 ft | 233 kts | 250° |
| 2026-04-26 14:36 | 26.42812 | -139.79220 | 14099 ft | 234 kts | 250° |
| 2026-04-26 14:37 | 26.42199 | -139.80900 | 14098 ft | 234 kts | 250° |
| 2026-04-26 14:37 | 26.41594 | -139.82561 | 14103 ft | 234 kts | 250° |
| 2026-04-26 14:37 | 26.40980 | -139.84244 | 14097 ft | 234 kts | 250° |
| 2026-04-26 14:37 | 26.40365 | -139.85930 | 14096 ft | 234 kts | 250° |
| 2026-04-26 14:38 | 26.39751 | -139.87610 | 14094 ft | 234 kts | 250° |
| 2026-04-26 14:38 | 26.39139 | -139.89285 | 14099 ft | 234 kts | 250° |
| 2026-04-26 14:38 | 26.38521 | -139.90976 | 14097 ft | 234 kts | 250° |
| 2026-04-26 14:38 | 26.38112 | -139.92095 | 14099 ft | 234 kts | 250° |
| 2026-04-26 14:39 | 26.37297 | -139.94324 | 14100 ft | 234 kts | 250° |
| 2026-04-26 14:39 | 26.36681 | -139.96006 | 14099 ft | 234 kts | 250° |
| 2026-04-26 14:39 | 26.36064 | -139.97691 | 14101 ft | 234 kts | 250° |
| 2026-04-26 14:39 | 26.35444 | -139.99383 | 14097 ft | 235 kts | 250° |
| 2026-04-26 14:40 | 26.34828 | -140.01066 | 14100 ft | 235 kts | 250° |
| 2026-04-26 14:40 | 26.34210 | -140.02751 | 14101 ft | 235 kts | 250° |
| 2026-04-26 14:40 | 26.33592 | -140.04435 | 14099 ft | 235 kts | 250° |
| 2026-04-26 14:40 | 26.32974 | -140.06120 | 14099 ft | 235 kts | 250° |
| 2026-04-26 14:41 | 26.32356 | -140.07805 | 14099 ft | 235 kts | 250° |
| 2026-04-26 14:41 | 26.31735 | -140.09493 | 14101 ft | 235 kts | 250° |
| 2026-04-26 14:41 | 26.31116 | -140.11179 | 14101 ft | 235 kts | 250° |
| 2026-04-26 14:41 | 26.30498 | -140.12862 | 14097 ft | 235 kts | 250° |
| 2026-04-26 14:42 | 26.29878 | -140.14546 | 14095 ft | 235 kts | 250° |
| 2026-04-26 14:42 | 26.29258 | -140.16232 | 14101 ft | 235 kts | 250° |
| 2026-04-26 14:42 | 26.28639 | -140.17915 | 14099 ft | 235 kts | 250° |
| 2026-04-26 14:42 | 26.28019 | -140.19599 | 14101 ft | 235 kts | 250° |
| 2026-04-26 14:43 | 26.27399 | -140.21283 | 14100 ft | 235 kts | 250° |
| 2026-04-26 14:43 | 26.26778 | -140.22966 | 14105 ft | 235 kts | 250° |
| 2026-04-26 14:43 | 26.26158 | -140.24650 | 14104 ft | 235 kts | 250° |
| 2026-04-26 14:43 | 26.25537 | -140.26334 | 14108 ft | 235 kts | 250° |
| 2026-04-26 14:44 | 26.24915 | -140.28020 | 14100 ft | 235 kts | 250° |
| 2026-04-26 14:44 | 26.24293 | -140.29704 | 14097 ft | 235 kts | 250° |
| 2026-04-26 14:44 | 26.23672 | -140.31386 | 14100 ft | 235 kts | 250° |
| 2026-04-26 14:44 | 26.23050 | -140.33071 | 14098 ft | 235 kts | 250° |
| 2026-04-26 14:45 | 26.22426 | -140.34757 | 14100 ft | 235 kts | 250° |
| 2026-04-26 14:45 | 26.22013 | -140.35874 | 14100 ft | 235 kts | 250° |
| 2026-04-26 14:45 | 26.21179 | -140.38130 | 14100 ft | 235 kts | 250° |
| 2026-04-26 14:45 | 26.20555 | -140.39818 | 14101 ft | 236 kts | 250° |
| 2026-04-26 14:46 | 26.19930 | -140.41504 | 14098 ft | 236 kts | 250° |
| 2026-04-26 14:46 | 26.19306 | -140.43190 | 14102 ft | 236 kts | 250° |
| 2026-04-26 14:46 | 26.18681 | -140.44876 | 14102 ft | 236 kts | 250° |
| 2026-04-26 14:46 | 26.18056 | -140.46565 | 14102 ft | 236 kts | 250° |
| 2026-04-26 14:47 | 26.17429 | -140.48254 | 14102 ft | 236 kts | 250° |
| 2026-04-26 14:47 | 26.16804 | -140.49940 | 14100 ft | 236 kts | 250° |
| 2026-04-26 14:47 | 26.16177 | -140.51627 | 14104 ft | 236 kts | 250° |
| 2026-04-26 14:47 | 26.15551 | -140.53314 | 14105 ft | 236 kts | 250° |
| 2026-04-26 14:48 | 26.14926 | -140.54999 | 14107 ft | 236 kts | 250° |
| 2026-04-26 14:48 | 26.14298 | -140.56686 | 14105 ft | 236 kts | 250° |
| 2026-04-26 14:48 | 26.13673 | -140.58369 | 14107 ft | 236 kts | 250° |
| 2026-04-26 14:48 | 26.13046 | -140.60055 | 14102 ft | 236 kts | 250° |
| 2026-04-26 14:49 | 26.12419 | -140.61740 | 14109 ft | 236 kts | 250° |
| 2026-04-26 14:49 | 26.11792 | -140.63426 | 14104 ft | 236 kts | 250° |
| 2026-04-26 14:49 | 26.11163 | -140.65113 | 14106 ft | 236 kts | 250° |
| 2026-04-26 14:49 | 26.10535 | -140.66798 | 14104 ft | 236 kts | 250° |
| 2026-04-26 14:50 | 26.09907 | -140.68485 | 14105 ft | 236 kts | 250° |
| 2026-04-26 14:50 | 26.09277 | -140.70173 | 14102 ft | 236 kts | 250° |
| 2026-04-26 14:50 | 26.08649 | -140.71858 | 14106 ft | 236 kts | 250° |
| 2026-04-26 14:50 | 26.08018 | -140.73547 | 14107 ft | 236 kts | 250° |
| 2026-04-26 14:51 | 26.07389 | -140.75232 | 14104 ft | 236 kts | 250° |
| 2026-04-26 14:51 | 26.06972 | -140.76351 | 14107 ft | 236 kts | 250° |
| 2026-04-26 14:51 | 26.06342 | -140.78038 | 14108 ft | 236 kts | 250° |
| 2026-04-26 14:51 | 26.05711 | -140.79725 | 14104 ft | 236 kts | 250° |
| 2026-04-26 14:52 | 26.05079 | -140.81414 | 14100 ft | 236 kts | 250° |
| 2026-04-26 14:52 | 26.04449 | -140.83101 | 14100 ft | 236 kts | 250° |
| 2026-04-26 14:52 | 26.03817 | -140.84789 | 14100 ft | 236 kts | 250° |
| 2026-04-26 14:52 | 26.03185 | -140.86476 | 14098 ft | 236 kts | 250° |
| 2026-04-26 14:53 | 26.02553 | -140.88162 | 14106 ft | 236 kts | 250° |
| 2026-04-26 14:53 | 26.01922 | -140.89850 | 14106 ft | 236 kts | 249° |
| 2026-04-26 14:53 | 26.01289 | -140.91535 | 14107 ft | 237 kts | 250° |
| 2026-04-26 14:53 | 26.00657 | -140.93223 | 14107 ft | 236 kts | 250° |
| 2026-04-26 14:54 | 26.00024 | -140.94910 | 14106 ft | 236 kts | 249° |
| 2026-04-26 14:54 | 25.99391 | -140.96596 | 14107 ft | 236 kts | 249° |
| 2026-04-26 14:54 | 25.98758 | -140.98283 | 14104 ft | 236 kts | 250° |
| 2026-04-26 14:54 | 25.98124 | -140.99969 | 14105 ft | 236 kts | 250° |
| 2026-04-26 14:55 | 25.97491 | -141.01656 | 14108 ft | 236 kts | 249° |
| 2026-04-26 14:55 | 25.96857 | -141.03342 | 14105 ft | 236 kts | 250° |
| 2026-04-26 14:55 | 25.96223 | -141.05027 | 14107 ft | 236 kts | 249° |
| 2026-04-26 14:55 | 25.95589 | -141.06712 | 14107 ft | 236 kts | 249° |
| 2026-04-26 14:56 | 25.94955 | -141.08398 | 14109 ft | 236 kts | 250° |
| 2026-04-26 14:56 | 25.94320 | -141.10082 | 14107 ft | 236 kts | 250° |
| 2026-04-26 14:56 | 25.93685 | -141.11769 | 14107 ft | 237 kts | 250° |
| 2026-04-26 14:56 | 25.93050 | -141.13456 | 14105 ft | 237 kts | 249° |
| 2026-04-26 14:57 | 25.92413 | -141.15143 | 14105 ft | 237 kts | 250° |
| 2026-04-26 14:57 | 25.91777 | -141.16831 | 14105 ft | 237 kts | 249° |
| 2026-04-26 14:57 | 25.91139 | -141.18520 | 14106 ft | 237 kts | 249° |
| 2026-04-26 14:57 | 25.90503 | -141.20206 | 14104 ft | 237 kts | 249° |
| 2026-04-26 14:58 | 25.89866 | -141.21893 | 14104 ft | 237 kts | 249° |
| 2026-04-26 14:58 | 25.89227 | -141.23582 | 14109 ft | 237 kts | 249° |
| 2026-04-26 14:58 | 25.88591 | -141.25267 | 14106 ft | 237 kts | 249° |
| 2026-04-26 14:58 | 25.87953 | -141.26953 | 14110 ft | 237 kts | 249° |
| 2026-04-26 14:59 | 25.87307 | -141.28661 | 14107 ft | 237 kts | 249° |
| 2026-04-26 14:59 | 25.86669 | -141.30347 | 14105 ft | 237 kts | 249° |
| 2026-04-26 14:59 | 25.86032 | -141.32031 | 14109 ft | 237 kts | 249° |
| 2026-04-26 14:59 | 25.85609 | -141.33146 | 14112 ft | 237 kts | 249° |
| 2026-04-26 15:00 | 25.84755 | -141.35402 | 14110 ft | 237 kts | 249° |
| 2026-04-26 15:00 | 25.84115 | -141.37089 | 14110 ft | 237 kts | 249° |
| 2026-04-26 15:00 | 25.83476 | -141.38774 | 14110 ft | 237 kts | 249° |
| 2026-04-26 15:00 | 25.82837 | -141.40460 | 14113 ft | 237 kts | 249° |
| 2026-04-26 15:01 | 25.82197 | -141.42147 | 14110 ft | 237 kts | 249° |
| 2026-04-26 15:01 | 25.81564 | -141.43811 | 14109 ft | 237 kts | 249° |
| 2026-04-26 15:01 | 25.80916 | -141.45519 | 14108 ft | 237 kts | 249° |
| 2026-04-26 15:01 | 25.80276 | -141.47204 | 14109 ft | 237 kts | 249° |
| 2026-04-26 15:02 | 25.79636 | -141.48887 | 14110 ft | 237 kts | 249° |
| 2026-04-26 15:02 | 25.78995 | -141.50571 | 14111 ft | 237 kts | 249° |
| 2026-04-26 15:02 | 25.78354 | -141.52255 | 14110 ft | 237 kts | 249° |
| 2026-04-26 15:02 | 25.77714 | -141.53939 | 14113 ft | 237 kts | 249° |
| 2026-04-26 15:03 | 25.77073 | -141.55622 | 14111 ft | 237 kts | 249° |
| 2026-04-26 15:03 | 25.76432 | -141.57304 | 14114 ft | 237 kts | 249° |
| 2026-04-26 15:03 | 25.75791 | -141.58986 | 14116 ft | 237 kts | 249° |
| 2026-04-26 15:03 | 25.75149 | -141.60670 | 14115 ft | 237 kts | 249° |
| 2026-04-26 15:04 | 25.74516 | -141.62331 | 14115 ft | 237 kts | 249° |
| 2026-04-26 15:04 | 25.73873 | -141.64014 | 14114 ft | 237 kts | 249° |
| 2026-04-26 15:04 | 25.73231 | -141.65696 | 14116 ft | 237 kts | 249° |
| 2026-04-26 15:04 | 25.72589 | -141.67379 | 14115 ft | 237 kts | 249° |
| 2026-04-26 15:05 | 25.71946 | -141.69062 | 14112 ft | 237 kts | 249° |
| 2026-04-26 15:05 | 25.71513 | -141.70195 | 14115 ft | 237 kts | 249° |
| 2026-04-26 15:05 | 25.70654 | -141.72443 | 14114 ft | 237 kts | 249° |
| 2026-04-26 15:05 | 25.70010 | -141.74125 | 14112 ft | 237 kts | 249° |
| 2026-04-26 15:06 | 25.69376 | -141.75783 | 14114 ft | 237 kts | 249° |
| 2026-04-26 15:06 | 25.68725 | -141.77483 | 14113 ft | 237 kts | 249° |
| 2026-04-26 15:06 | 25.68082 | -141.79162 | 14112 ft | 237 kts | 249° |
| 2026-04-26 15:06 | 25.67438 | -141.80843 | 14113 ft | 237 kts | 249° |
| 2026-04-26 15:07 | 25.66152 | -141.84198 | 14115 ft | 237 kts | 249° |
| 2026-04-26 15:07 | 25.65508 | -141.85876 | 14113 ft | 237 kts | 249° |
| 2026-04-26 15:07 | 25.64864 | -141.87552 | 14114 ft | 237 kts | 249° |
| 2026-04-26 15:08 | 25.64221 | -141.89230 | 14113 ft | 237 kts | 249° |
| 2026-04-26 15:08 | 25.63577 | -141.90908 | 14113 ft | 237 kts | 249° |
| 2026-04-26 15:08 | 25.62932 | -141.92584 | 14112 ft | 237 kts | 249° |
| 2026-04-26 15:08 | 25.62287 | -141.94261 | 14111 ft | 236 kts | 249° |
| 2026-04-26 15:09 | 25.61643 | -141.95938 | 14110 ft | 236 kts | 249° |
| 2026-04-26 15:09 | 25.60998 | -141.97615 | 14112 ft | 236 kts | 249° |
| 2026-04-26 15:09 | 25.60354 | -141.99290 | 14110 ft | 236 kts | 249° |
| 2026-04-26 15:09 | 25.59710 | -142.00963 | 14109 ft | 236 kts | 249° |
| 2026-04-26 15:10 | 25.59065 | -142.02636 | 14109 ft | 236 kts | 249° |
| 2026-04-26 15:10 | 25.58639 | -142.03743 | 14110 ft | 236 kts | 249° |
| 2026-04-26 15:10 | 25.57777 | -142.05976 | 14109 ft | 235 kts | 249° |
| 2026-04-26 15:10 | 25.57136 | -142.07641 | 14109 ft | 235 kts | 249° |
| 2026-04-26 15:11 | 25.56495 | -142.09302 | 14111 ft | 234 kts | 249° |
| 2026-04-26 15:11 | 25.55855 | -142.10961 | 14110 ft | 234 kts | 249° |
| 2026-04-26 15:11 | 25.55214 | -142.12620 | 14107 ft | 234 kts | 249° |
| 2026-04-26 15:11 | 25.54576 | -142.14274 | 14107 ft | 234 kts | 249° |
| 2026-04-26 15:12 | 25.53937 | -142.15929 | 14108 ft | 233 kts | 249° |
| 2026-04-26 15:12 | 25.53296 | -142.17582 | 14110 ft | 233 kts | 249° |
| 2026-04-26 15:12 | 25.52659 | -142.19232 | 14109 ft | 233 kts | 249° |
| 2026-04-26 15:12 | 25.52026 | -142.20869 | 14112 ft | 230 kts | 249° |
| 2026-04-26 15:13 | 25.51394 | -142.22501 | 14109 ft | 231 kts | 249° |
| 2026-04-26 15:13 | 25.50763 | -142.24132 | 14110 ft | 230 kts | 249° |
| 2026-04-26 15:13 | 25.50132 | -142.25762 | 14110 ft | 230 kts | 249° |
| 2026-04-26 15:13 | 25.49502 | -142.27386 | 14110 ft | 230 kts | 249° |
| 2026-04-26 15:14 | 25.48874 | -142.29008 | 14109 ft | 230 kts | 249° |
| 2026-04-26 15:14 | 25.48241 | -142.30642 | 14116 ft | 232 kts | 249° |
| 2026-04-26 15:14 | 25.47602 | -142.32287 | 14122 ft | 233 kts | 249° |
| 2026-04-26 15:14 | 25.46961 | -142.33941 | 14126 ft | 234 kts | 249° |
| 2026-04-26 15:15 | 25.46315 | -142.35604 | 14125 ft | 236 kts | 249° |
| 2026-04-26 15:15 | 25.45666 | -142.37276 | 14126 ft | 237 kts | 249° |
| 2026-04-26 15:15 | 25.45014 | -142.38956 | 14128 ft | 238 kts | 250° |
| 2026-04-26 15:15 | 25.44358 | -142.40642 | 14124 ft | 239 kts | 249° |
| 2026-04-26 15:16 | 25.43701 | -142.42327 | 14128 ft | 239 kts | 249° |
| 2026-04-26 15:16 | 25.43044 | -142.44021 | 14127 ft | 240 kts | 249° |
| 2026-04-26 15:16 | 25.42384 | -142.45716 | 14129 ft | 240 kts | 249° |
| 2026-04-26 15:16 | 25.41725 | -142.47413 | 14123 ft | 240 kts | 249° |
| 2026-04-26 15:17 | 25.41062 | -142.49111 | 14129 ft | 241 kts | 249° |
| 2026-04-26 15:17 | 25.40623 | -142.50238 | 14125 ft | 241 kts | 249° |
| 2026-04-26 15:17 | 25.39736 | -142.52514 | 14127 ft | 241 kts | 249° |
| 2026-04-26 15:17 | 25.39072 | -142.54217 | 14126 ft | 241 kts | 249° |
| 2026-04-26 15:18 | 25.38409 | -142.55917 | 14130 ft | 241 kts | 249° |
| 2026-04-26 15:18 | 25.37744 | -142.57619 | 14128 ft | 241 kts | 249° |
| 2026-04-26 15:18 | 25.37080 | -142.59323 | 14126 ft | 242 kts | 249° |
| 2026-04-26 15:18 | 25.36411 | -142.61033 | 14129 ft | 242 kts | 249° |
| 2026-04-26 15:19 | 25.35743 | -142.62743 | 14141 ft | 241 kts | 249° |
| 2026-04-26 15:19 | 25.35078 | -142.64446 | 14177 ft | 241 kts | 249° |
| 2026-04-26 15:19 | 25.34413 | -142.66146 | 14208 ft | 239 kts | 249° |
| 2026-04-26 15:19 | 25.33783 | -142.67748 | 14706 ft | 216 kts | 249° |
| 2026-04-26 15:20 | 25.33195 | -142.69254 | 14838 ft | 215 kts | 250° |
| 2026-04-26 15:20 | 25.32602 | -142.70774 | 14896 ft | 215 kts | 249° |
| 2026-04-26 15:20 | 25.32009 | -142.72293 | 15010 ft | 217 kts | 250° |
| 2026-04-26 15:20 | 25.31414 | -142.73807 | 15271 ft | 214 kts | 249° |
| 2026-04-26 15:21 | 25.30820 | -142.75323 | 15431 ft | 216 kts | 250° |
| 2026-04-26 15:21 | 25.30223 | -142.76845 | 15624 ft | 216 kts | 249° |
| 2026-04-26 15:21 | 25.29627 | -142.78365 | 15775 ft | 216 kts | 249° |
| 2026-04-26 15:21 | 25.29029 | -142.79892 | 15931 ft | 217 kts | 249° |
| 2026-04-26 15:22 | 25.28429 | -142.81418 | 16079 ft | 217 kts | 249° |
| 2026-04-26 15:22 | 25.27829 | -142.82948 | 16228 ft | 217 kts | 250° |
| 2026-04-26 15:22 | 25.27227 | -142.84480 | 16364 ft | 218 kts | 249° |
| 2026-04-26 15:22 | 25.26624 | -142.86014 | 16488 ft | 218 kts | 249° |
| 2026-04-26 15:23 | 25.26020 | -142.87551 | 16617 ft | 218 kts | 249° |
| 2026-04-26 15:23 | 25.25415 | -142.89092 | 16729 ft | 219 kts | 249° |
| 2026-04-26 15:23 | 25.24807 | -142.90635 | 16850 ft | 219 kts | 249° |
| 2026-04-26 15:23 | 25.24199 | -142.92181 | 16972 ft | 219 kts | 249° |
| 2026-04-26 15:24 | 25.23591 | -142.93727 | 17077 ft | 219 kts | 249° |
| 2026-04-26 15:24 | 25.22982 | -142.95274 | 17172 ft | 220 kts | 249° |
| 2026-04-26 15:24 | 25.22371 | -142.96824 | 17280 ft | 220 kts | 249° |
| 2026-04-26 15:24 | 25.21761 | -142.98372 | 17376 ft | 220 kts | 249° |
| 2026-04-26 15:25 | 25.21149 | -142.99926 | 17453 ft | 221 kts | 249° |
| 2026-04-26 15:25 | 25.20743 | -143.00955 | 17537 ft | 221 kts | 249° |
| 2026-04-26 15:25 | 25.19922 | -143.03035 | 17652 ft | 221 kts | 249° |
| 2026-04-26 15:25 | 25.19309 | -143.04590 | 17733 ft | 221 kts | 249° |
| 2026-04-26 15:26 | 25.19056 | -143.05230 | 17768 ft | 221 kts | 249° |
| 2026-04-26 15:26 | 25.18931 | -143.05546 | 17786 ft | 221 kts | 249° |
| 2026-04-26 15:26 | 25.18316 | -143.07105 | 17862 ft | 222 kts | 249° |
| 2026-04-26 15:27 | 25.18054 | -143.07769 | 17900 ft | 222 kts | 249° |
| 2026-04-26 15:27 | 25.17101 | -143.10182 | 18024 ft | 222 kts | 249° |
| 2026-04-26 15:27 | 25.15864 | -143.13310 | 18149 ft | 223 kts | 249° |
| 2026-04-26 15:27 | 25.14626 | -143.16439 | 18301 ft | 223 kts | 249° |
| 2026-04-26 15:28 | 25.13383 | -143.19576 | 18413 ft | 223 kts | 249° |
| 2026-04-26 15:28 | 25.12134 | -143.22728 | 18517 ft | 224 kts | 249° |
| 2026-04-26 15:28 | 25.10482 | -143.26896 | 18641 ft | 224 kts | 249° |
| 2026-04-26 15:28 | 25.07981 | -143.33196 | 18807 ft | 224 kts | 249° |
| 2026-04-26 15:29 | 25.05475 | -143.39499 | 18948 ft | 225 kts | 249° |
| 2026-04-26 15:29 | 25.00892 | -143.51006 | 19192 ft | 225 kts | 249° |
| 2026-04-26 15:29 | 24.90737 | -143.76376 | 19556 ft | 227 kts | 249° |
| 2026-04-26 15:30 | 24.78683 | -144.06307 | 19848 ft | 227 kts | 249° |
| 2026-04-26 15:30 | 24.73697 | -144.18621 | 19957 ft | 229 kts | 249° |
| 2026-04-26 15:30 | 24.73053 | -144.20221 | 20128 ft | 228 kts | 249° |
| 2026-04-26 15:31 | 24.72401 | -144.21828 | 20161 ft | 233 kts | 249° |
| 2026-04-26 15:31 | 24.71041 | -144.25182 | 20166 ft | 244 kts | 249° |
| 2026-04-26 15:31 | 24.70343 | -144.26901 | 20164 ft | 248 kts | 249° |
| 2026-04-26 15:32 | 24.69160 | -144.29813 | 20161 ft | 254 kts | 249° |
| 2026-04-26 15:32 | 24.68188 | -144.32204 | 20164 ft | 258 kts | 249° |
| 2026-04-26 15:32 | 24.67453 | -144.34012 | 20164 ft | 260 kts | 248° |
| 2026-04-26 15:33 | 24.66712 | -144.35832 | 20163 ft | 262 kts | 248° |
| 2026-04-26 15:33 | 24.65966 | -144.37665 | 20163 ft | 264 kts | 248° |
| 2026-04-26 15:33 | 24.65215 | -144.39512 | 20162 ft | 265 kts | 248° |
| 2026-04-26 15:33 | 24.64460 | -144.41365 | 20165 ft | 266 kts | 248° |
| 2026-04-26 15:34 | 24.63702 | -144.43226 | 20163 ft | 267 kts | 248° |
| 2026-04-26 15:34 | 24.62941 | -144.45092 | 20160 ft | 269 kts | 248° |
| 2026-04-26 15:34 | 24.62174 | -144.46973 | 20161 ft | 270 kts | 248° |
| 2026-04-26 15:34 | 24.61404 | -144.48861 | 20162 ft | 271 kts | 248° |
| 2026-04-26 15:35 | 24.60629 | -144.50760 | 20159 ft | 273 kts | 248° |
| 2026-04-26 15:35 | 24.59851 | -144.52664 | 20159 ft | 274 kts | 248° |
| 2026-04-26 15:35 | 24.59072 | -144.54572 | 20156 ft | 274 kts | 248° |
| 2026-04-26 15:35 | 24.58289 | -144.56487 | 20157 ft | 275 kts | 248° |
| 2026-04-26 15:36 | 24.57505 | -144.58405 | 20159 ft | 275 kts | 248° |
| 2026-04-26 15:36 | 24.56719 | -144.60326 | 20160 ft | 276 kts | 248° |
| 2026-04-26 15:36 | 24.55932 | -144.62250 | 20159 ft | 276 kts | 248° |
| 2026-04-26 15:36 | 24.55145 | -144.64171 | 20158 ft | 275 kts | 248° |
| 2026-04-26 15:37 | 24.54362 | -144.66084 | 20151 ft | 274 kts | 248° |
| 2026-04-26 15:37 | 24.53582 | -144.67987 | 20147 ft | 273 kts | 248° |
| 2026-04-26 15:37 | 24.52803 | -144.69888 | 20142 ft | 273 kts | 248° |
| 2026-04-26 15:37 | 24.52021 | -144.71794 | 20144 ft | 274 kts | 248° |
| 2026-04-26 15:38 | 24.51236 | -144.73709 | 20147 ft | 275 kts | 248° |
| 2026-04-26 15:38 | 24.50448 | -144.75628 | 20150 ft | 276 kts | 248° |
| 2026-04-26 15:38 | 24.49658 | -144.77552 | 20150 ft | 277 kts | 248° |
| 2026-04-26 15:38 | 24.48867 | -144.79478 | 20154 ft | 277 kts | 248° |
| 2026-04-26 15:39 | 24.48064 | -144.81433 | 20153 ft | 278 kts | 248° |
| 2026-04-26 15:39 | 24.42108 | -144.95899 | 20153 ft | 281 kts | 248° |
| 2026-04-26 15:39 | 24.38774 | -145.03983 | 20153 ft | 282 kts | 248° |
| 2026-04-26 15:39 | 24.38240 | -145.05279 | 20152 ft | 281 kts | 248° |
| 2026-04-26 15:40 | 24.37162 | -145.07892 | 20150 ft | 281 kts | 248° |
| 2026-04-26 15:40 | 24.36358 | -145.09837 | 20150 ft | 279 kts | 248° |
| 2026-04-26 15:40 | 24.35560 | -145.11769 | 20141 ft | 276 kts | 248° |
| 2026-04-26 15:40 | 24.34775 | -145.13669 | 20139 ft | 271 kts | 248° |
| 2026-04-26 15:41 | 24.34001 | -145.15543 | 20138 ft | 268 kts | 248° |
| 2026-04-26 15:41 | 24.33237 | -145.17389 | 20134 ft | 265 kts | 248° |
| 2026-04-26 15:41 | 24.32482 | -145.19217 | 20134 ft | 262 kts | 248° |
| 2026-04-26 15:41 | 24.31732 | -145.21027 | 20133 ft | 260 kts | 248° |
| 2026-04-26 15:42 | 24.30990 | -145.22822 | 20133 ft | 258 kts | 248° |
| 2026-04-26 15:42 | 24.30251 | -145.24605 | 20136 ft | 256 kts | 248° |
| 2026-04-26 15:42 | 24.29527 | -145.26354 | 20132 ft | 254 kts | 248° |
| 2026-04-26 15:42 | 24.28788 | -145.28135 | 20135 ft | 253 kts | 248° |
| 2026-04-26 15:43 | 24.28062 | -145.29888 | 20133 ft | 252 kts | 248° |
| 2026-04-26 15:43 | 24.27347 | -145.31610 | 20134 ft | 251 kts | 248° |
| 2026-04-26 15:43 | 24.25907 | -145.35079 | 20138 ft | 249 kts | 248° |
| 2026-04-26 15:44 | 24.25190 | -145.36808 | 20138 ft | 249 kts | 248° |
| 2026-04-26 15:44 | 24.23758 | -145.40252 | 20133 ft | 248 kts | 248° |
| 2026-04-26 15:44 | 24.23044 | -145.41969 | 20135 ft | 247 kts | 248° |
| 2026-04-26 15:45 | 24.21609 | -145.45418 | 20134 ft | 247 kts | 248° |
| 2026-04-26 15:45 | 24.20897 | -145.47129 | 20133 ft | 247 kts | 248° |
| 2026-04-26 15:46 | 24.19474 | -145.50546 | 20134 ft | 246 kts | 248° |
| 2026-04-26 15:46 | 24.18763 | -145.52252 | 20138 ft | 246 kts | 248° |
| 2026-04-26 15:46 | 24.18061 | -145.53936 | 20137 ft | 246 kts | 248° |
| 2026-04-26 15:46 | 24.17582 | -145.55087 | 20136 ft | 246 kts | 248° |
| 2026-04-26 15:47 | 24.16639 | -145.57345 | 20137 ft | 246 kts | 248° |
| 2026-04-26 15:47 | 24.15217 | -145.60753 | 20134 ft | 246 kts | 248° |
| 2026-04-26 15:47 | 24.14506 | -145.62455 | 20133 ft | 246 kts | 248° |
| 2026-04-26 15:48 | 24.13794 | -145.64158 | 20133 ft | 246 kts | 248° |
| 2026-04-26 15:48 | 24.13083 | -145.65860 | 20134 ft | 246 kts | 248° |
| 2026-04-26 15:48 | 24.12370 | -145.67565 | 20133 ft | 246 kts | 248° |
| 2026-04-26 15:48 | 24.11657 | -145.69268 | 20133 ft | 246 kts | 248° |
| 2026-04-26 15:49 | 24.10946 | -145.70970 | 20135 ft | 246 kts | 248° |
| 2026-04-26 15:49 | 24.10231 | -145.72674 | 20130 ft | 246 kts | 248° |
| 2026-04-26 15:49 | 24.09519 | -145.74378 | 20130 ft | 246 kts | 248° |
| 2026-04-26 15:49 | 24.08806 | -145.76077 | 20130 ft | 246 kts | 248° |
| 2026-04-26 15:50 | 24.08092 | -145.77783 | 20130 ft | 246 kts | 248° |
| 2026-04-26 15:50 | 24.07378 | -145.79484 | 20135 ft | 246 kts | 248° |
| 2026-04-26 15:50 | 24.06665 | -145.81186 | 20135 ft | 246 kts | 248° |
| 2026-04-26 15:50 | 24.05951 | -145.82888 | 20133 ft | 246 kts | 248° |
| 2026-04-26 15:51 | 24.05238 | -145.84586 | 20138 ft | 245 kts | 248° |
| 2026-04-26 15:51 | 24.04517 | -145.86303 | 20131 ft | 245 kts | 248° |
| 2026-04-26 15:51 | 24.03813 | -145.87979 | 20131 ft | 245 kts | 248° |
| 2026-04-26 15:51 | 24.03101 | -145.89672 | 20133 ft | 245 kts | 248° |
| 2026-04-26 15:52 | 24.02383 | -145.91383 | 20146 ft | 250 kts | 248° |
| 2026-04-26 15:52 | 24.01652 | -145.93120 | 20149 ft | 253 kts | 248° |
| 2026-04-26 15:52 | 24.00912 | -145.94880 | 20148 ft | 256 kts | 248° |
| 2026-04-26 15:52 | 24.00406 | -145.96082 | 20147 ft | 258 kts | 248° |
| 2026-04-26 15:53 | 23.99418 | -145.98427 | 20141 ft | 254 kts | 248° |
| 2026-04-26 15:53 | 23.98682 | -146.00174 | 20133 ft | 252 kts | 248° |
| 2026-04-26 15:53 | 23.97951 | -146.01909 | 20134 ft | 250 kts | 248° |
| 2026-04-26 15:53 | 23.97227 | -146.03628 | 20131 ft | 248 kts | 248° |
| 2026-04-26 15:54 | 23.96507 | -146.05334 | 20130 ft | 246 kts | 248° |
| 2026-04-26 15:54 | 23.95792 | -146.07031 | 20129 ft | 245 kts | 248° |
| 2026-04-26 15:54 | 23.95081 | -146.08716 | 20129 ft | 244 kts | 248° |
| 2026-04-26 15:54 | 23.94373 | -146.10395 | 20132 ft | 243 kts | 248° |
| 2026-04-26 15:55 | 23.93667 | -146.12065 | 20133 ft | 242 kts | 248° |
| 2026-04-26 15:55 | 23.92963 | -146.13733 | 20129 ft | 241 kts | 248° |
| 2026-04-26 15:55 | 23.92261 | -146.15393 | 20127 ft | 240 kts | 248° |
| 2026-04-26 15:55 | 23.91562 | -146.17047 | 20127 ft | 240 kts | 248° |
| 2026-04-26 15:56 | 23.90863 | -146.18699 | 20129 ft | 239 kts | 248° |
| 2026-04-26 15:56 | 23.90166 | -146.20346 | 20127 ft | 239 kts | 248° |
| 2026-04-26 15:56 | 23.89471 | -146.21991 | 20128 ft | 238 kts | 248° |
| 2026-04-26 15:56 | 23.88776 | -146.23632 | 20129 ft | 238 kts | 248° |
| 2026-04-26 15:57 | 23.88082 | -146.25271 | 20127 ft | 238 kts | 248° |
| 2026-04-26 15:57 | 23.87388 | -146.26908 | 20130 ft | 237 kts | 248° |
| 2026-04-26 15:57 | 23.86697 | -146.28538 | 20133 ft | 237 kts | 248° |
| 2026-04-26 15:57 | 23.86230 | -146.29641 | 20133 ft | 237 kts | 248° |
| 2026-04-26 15:58 | 23.85303 | -146.31828 | 20139 ft | 238 kts | 248° |
| 2026-04-26 15:58 | 23.84612 | -146.33457 | 20145 ft | 241 kts | 248° |
| 2026-04-26 15:58 | 23.83891 | -146.35156 | 20144 ft | 246 kts | 248° |
| 2026-04-26 15:58 | 23.83170 | -146.36854 | 20144 ft | 247 kts | 248° |
| 2026-04-26 15:59 | 23.82444 | -146.38564 | 20143 ft | 249 kts | 248° |
| 2026-04-26 15:59 | 23.81621 | -146.40502 | 20144 ft | 252 kts | 248° |
| 2026-04-26 15:59 | 23.77987 | -146.49043 | 20145 ft | 262 kts | 248° |
| 2026-04-26 15:59 | 23.71731 | -146.63714 | 20134 ft | 269 kts | 248° |
| 2026-04-26 16:00 | 23.70039 | -146.67676 | 20136 ft | 269 kts | 248° |
| 2026-04-26 16:00 | 23.69249 | -146.69518 | 20133 ft | 267 kts | 248° |
| 2026-04-26 16:00 | 23.68466 | -146.71351 | 20127 ft | 266 kts | 248° |
| 2026-04-26 16:00 | 23.67685 | -146.73176 | 20125 ft | 265 kts | 248° |
| 2026-04-26 16:01 | 23.66907 | -146.74993 | 20124 ft | 264 kts | 248° |
| 2026-04-26 16:01 | 23.66131 | -146.76805 | 20122 ft | 263 kts | 248° |
| 2026-04-26 16:01 | 23.65363 | -146.78597 | 20119 ft | 260 kts | 248° |
| 2026-04-26 16:01 | 23.64603 | -146.80371 | 20124 ft | 257 kts | 248° |
| 2026-04-26 16:02 | 23.63849 | -146.82133 | 20126 ft | 256 kts | 248° |
| 2026-04-26 16:02 | 23.63096 | -146.83890 | 20129 ft | 255 kts | 248° |
| 2026-04-26 16:02 | 23.62342 | -146.85642 | 20128 ft | 255 kts | 248° |
| 2026-04-26 16:02 | 23.61843 | -146.86804 | 20127 ft | 255 kts | 248° |
| 2026-04-26 16:03 | 23.60837 | -146.89150 | 20125 ft | 255 kts | 248° |
| 2026-04-26 16:03 | 23.60085 | -146.90902 | 20126 ft | 255 kts | 248° |
| 2026-04-26 16:03 | 23.59334 | -146.92651 | 20126 ft | 255 kts | 248° |
| 2026-04-26 16:03 | 23.58581 | -146.94400 | 20122 ft | 255 kts | 248° |
| 2026-04-26 16:04 | 23.57830 | -146.96147 | 20126 ft | 254 kts | 248° |
| 2026-04-26 16:04 | 23.57083 | -146.97885 | 20125 ft | 253 kts | 248° |
| 2026-04-26 16:04 | 23.56339 | -146.99613 | 20127 ft | 251 kts | 248° |
| 2026-04-26 16:04 | 23.55597 | -147.01332 | 20121 ft | 250 kts | 248° |
| 2026-04-26 16:05 | 23.54863 | -147.03041 | 20119 ft | 249 kts | 248° |
| 2026-04-26 16:05 | 23.54130 | -147.04743 | 20121 ft | 248 kts | 248° |
| 2026-04-26 16:05 | 23.53398 | -147.06440 | 20123 ft | 247 kts | 248° |
| 2026-04-26 16:05 | 23.52670 | -147.08131 | 20129 ft | 246 kts | 248° |
| 2026-04-26 16:06 | 23.52188 | -147.09248 | 20124 ft | 246 kts | 248° |
| 2026-04-26 16:06 | 23.51461 | -147.10932 | 20128 ft | 245 kts | 248° |
| 2026-04-26 16:06 | 23.50738 | -147.12608 | 20123 ft | 245 kts | 248° |
| 2026-04-26 16:06 | 23.50014 | -147.14285 | 20124 ft | 244 kts | 248° |
| 2026-04-26 16:07 | 23.49290 | -147.15960 | 20124 ft | 244 kts | 248° |
| 2026-04-26 16:07 | 23.48570 | -147.17630 | 20117 ft | 244 kts | 248° |
| 2026-04-26 16:07 | 23.47848 | -147.19299 | 20122 ft | 243 kts | 247° |
| 2026-04-26 16:07 | 23.47126 | -147.20966 | 20121 ft | 243 kts | 248° |
| 2026-04-26 16:08 | 23.46406 | -147.22633 | 20123 ft | 243 kts | 248° |
| 2026-04-26 16:08 | 23.45686 | -147.24299 | 20121 ft | 243 kts | 248° |
| 2026-04-26 16:08 | 23.44966 | -147.25963 | 20124 ft | 243 kts | 248° |
| 2026-04-26 16:08 | 23.44246 | -147.27627 | 20126 ft | 243 kts | 248° |
| 2026-04-26 16:09 | 23.43525 | -147.29290 | 20124 ft | 243 kts | 247° |
| 2026-04-26 16:09 | 23.42803 | -147.30952 | 20131 ft | 243 kts | 248° |
| 2026-04-26 16:09 | 23.42085 | -147.32614 | 20135 ft | 243 kts | 247° |
| 2026-04-26 16:09 | 23.41364 | -147.34278 | 20131 ft | 243 kts | 247° |
| 2026-04-26 16:10 | 23.40642 | -147.35940 | 20129 ft | 243 kts | 248° |
| 2026-04-26 16:10 | 23.39921 | -147.37603 | 20122 ft | 243 kts | 248° |
| 2026-04-26 16:10 | 23.39198 | -147.39269 | 20122 ft | 243 kts | 248° |
| 2026-04-26 16:10 | 23.38476 | -147.40933 | 20121 ft | 243 kts | 247° |
| 2026-04-26 16:11 | 23.37753 | -147.42594 | 20135 ft | 243 kts | 248° |
| 2026-04-26 16:11 | 23.37032 | -147.44258 | 20126 ft | 243 kts | 247° |
| 2026-04-26 16:11 | 23.36309 | -147.45921 | 20120 ft | 243 kts | 248° |
| 2026-04-26 16:11 | 23.35585 | -147.47584 | 20122 ft | 243 kts | 248° |
| 2026-04-26 16:12 | 23.34861 | -147.49247 | 20115 ft | 243 kts | 248° |
| 2026-04-26 16:12 | 23.34139 | -147.50911 | 20130 ft | 243 kts | 248° |
| 2026-04-26 16:12 | 23.32691 | -147.54237 | 20116 ft | 243 kts | 248° |
| 2026-04-26 16:13 | 23.31965 | -147.55900 | 20120 ft | 243 kts | 247° |
| 2026-04-26 16:13 | 23.31240 | -147.57567 | 20118 ft | 243 kts | 247° |
| 2026-04-26 16:13 | 23.30515 | -147.59230 | 20116 ft | 243 kts | 247° |
| 2026-04-26 16:13 | 23.29787 | -147.60889 | 20113 ft | 243 kts | 246° |
| 2026-04-26 16:14 | 23.28720 | -147.62327 | 20116 ft | 248 kts | 223° |
| 2026-04-26 16:14 | 23.27203 | -147.63253 | 20133 ft | 252 kts | 207° |
| 2026-04-26 16:14 | 23.23951 | -147.64682 | 20126 ft | 251 kts | 208° |
| 2026-04-26 16:15 | 23.22585 | -147.65800 | 20113 ft | 244 kts | 233° |
| 2026-04-26 16:15 | 23.21789 | -147.67384 | 20125 ft | 237 kts | 255° |
| 2026-04-26 16:15 | 23.21348 | -147.69103 | 20132 ft | 237 kts | 256° |
| 2026-04-26 16:16 | 23.20024 | -147.72402 | 20137 ft | 239 kts | 246° |
| 2026-04-26 16:16 | 23.19304 | -147.74035 | 20133 ft | 240 kts | 248° |
| 2026-04-26 16:16 | 23.18618 | -147.75683 | 20140 ft | 240 kts | 248° |
| 2026-04-26 16:16 | 23.17922 | -147.77336 | 20137 ft | 241 kts | 248° |
| 2026-04-26 16:17 | 23.17214 | -147.78988 | 20135 ft | 241 kts | 248° |
| 2026-04-26 16:17 | 23.16510 | -147.80643 | 20134 ft | 241 kts | 248° |
| 2026-04-26 16:17 | 23.15805 | -147.82300 | 20135 ft | 242 kts | 248° |
| 2026-04-26 16:17 | 23.15097 | -147.83958 | 20131 ft | 242 kts | 248° |
| 2026-04-26 16:18 | 23.14389 | -147.85617 | 20134 ft | 242 kts | 248° |
| 2026-04-26 16:18 | 23.12974 | -147.88948 | 20132 ft | 243 kts | 248° |
| 2026-04-26 16:19 | 23.11541 | -147.92305 | 20136 ft | 244 kts | 249° |
| 2026-04-26 16:19 | 23.10829 | -147.93973 | 20134 ft | 244 kts | 248° |
| 2026-04-26 16:19 | 23.09644 | -147.96751 | 20131 ft | 244 kts | 247° |
| 2026-04-26 16:20 | 23.08685 | -147.98994 | 20135 ft | 245 kts | 248° |
| 2026-04-26 16:20 | 23.07254 | -148.02347 | 20131 ft | 245 kts | 248° |
| 2026-04-26 16:20 | 23.06536 | -148.04025 | 20128 ft | 245 kts | 248° |
| 2026-04-26 16:21 | 23.05818 | -148.05702 | 20129 ft | 245 kts | 248° |
| 2026-04-26 16:21 | 23.05101 | -148.07380 | 20130 ft | 245 kts | 248° |
| 2026-04-26 16:21 | 23.04383 | -148.09058 | 20128 ft | 245 kts | 247° |
| 2026-04-26 16:21 | 23.03663 | -148.10737 | 20129 ft | 245 kts | 248° |
| 2026-04-26 16:22 | 23.02946 | -148.12419 | 20128 ft | 245 kts | 248° |
| 2026-04-26 16:22 | 23.02226 | -148.14100 | 20130 ft | 245 kts | 248° |
| 2026-04-26 16:22 | 23.01503 | -148.15778 | 20129 ft | 245 kts | 248° |
| 2026-04-26 16:22 | 23.00783 | -148.17456 | 20129 ft | 245 kts | 248° |
| 2026-04-26 16:23 | 23.00066 | -148.19137 | 20128 ft | 246 kts | 248° |
| 2026-04-26 16:23 | 22.99342 | -148.20819 | 20127 ft | 246 kts | 248° |
| 2026-04-26 16:23 | 22.98619 | -148.22501 | 20126 ft | 246 kts | 248° |
| 2026-04-26 16:23 | 22.97898 | -148.24186 | 20127 ft | 246 kts | 248° |
| 2026-04-26 16:24 | 22.97173 | -148.25871 | 20124 ft | 246 kts | 248° |
| 2026-04-26 16:24 | 22.96450 | -148.27555 | 20124 ft | 246 kts | 248° |
| 2026-04-26 16:24 | 22.95727 | -148.29242 | 20128 ft | 247 kts | 248° |
| 2026-04-26 16:24 | 22.95001 | -148.30926 | 20128 ft | 247 kts | 248° |
| 2026-04-26 16:25 | 22.94273 | -148.32614 | 20125 ft | 247 kts | 248° |
| 2026-04-26 16:25 | 22.93548 | -148.34304 | 20127 ft | 247 kts | 248° |
| 2026-04-26 16:25 | 22.92822 | -148.35992 | 20125 ft | 247 kts | 248° |
| 2026-04-26 16:25 | 22.92097 | -148.37679 | 20127 ft | 247 kts | 248° |
| 2026-04-26 16:26 | 22.91367 | -148.39370 | 20123 ft | 247 kts | 248° |
| 2026-04-26 16:26 | 22.90886 | -148.40488 | 20128 ft | 247 kts | 248° |
| 2026-04-26 16:26 | 22.89910 | -148.42749 | 20126 ft | 248 kts | 247° |
| 2026-04-26 16:26 | 22.89182 | -148.44442 | 20125 ft | 248 kts | 248° |
| 2026-04-26 16:27 | 22.88452 | -148.46133 | 20125 ft | 248 kts | 248° |
| 2026-04-26 16:27 | 22.87722 | -148.47825 | 20122 ft | 248 kts | 248° |
| 2026-04-26 16:27 | 22.86989 | -148.49520 | 20119 ft | 248 kts | 248° |
| 2026-04-26 16:27 | 22.86259 | -148.51213 | 20120 ft | 248 kts | 247° |
| 2026-04-26 16:28 | 22.85526 | -148.52908 | 20118 ft | 248 kts | 248° |
| 2026-04-26 16:28 | 22.84794 | -148.54606 | 20119 ft | 248 kts | 248° |
| 2026-04-26 16:28 | 22.84061 | -148.56300 | 20122 ft | 248 kts | 247° |
| 2026-04-26 16:28 | 22.83327 | -148.57996 | 20118 ft | 249 kts | 248° |
| 2026-04-26 16:29 | 22.82595 | -148.59693 | 20122 ft | 249 kts | 248° |
| 2026-04-26 16:29 | 22.81860 | -148.61390 | 20122 ft | 249 kts | 247° |
| 2026-04-26 16:29 | 22.81123 | -148.63090 | 20119 ft | 249 kts | 247° |
| 2026-04-26 16:29 | 22.80386 | -148.64788 | 20118 ft | 249 kts | 247° |
| 2026-04-26 16:30 | 22.79652 | -148.66488 | 20119 ft | 249 kts | 247° |
| 2026-04-26 16:30 | 22.78914 | -148.68193 | 20117 ft | 250 kts | 247° |
| 2026-04-26 16:30 | 22.78176 | -148.69898 | 20118 ft | 250 kts | 247° |
| 2026-04-26 16:30 | 22.77435 | -148.71602 | 20117 ft | 250 kts | 247° |
| 2026-04-26 16:31 | 22.76697 | -148.73303 | 20117 ft | 250 kts | 247° |
| 2026-04-26 16:31 | 22.75958 | -148.75009 | 20115 ft | 250 kts | 247° |
| 2026-04-26 16:31 | 22.75217 | -148.76714 | 20116 ft | 250 kts | 247° |
| 2026-04-26 16:31 | 22.74477 | -148.78420 | 20120 ft | 250 kts | 247° |
| 2026-04-26 16:32 | 22.73734 | -148.80127 | 20119 ft | 251 kts | 247° |
| 2026-04-26 16:32 | 22.73244 | -148.81259 | 20115 ft | 251 kts | 247° |
| 2026-04-26 16:32 | 22.72250 | -148.83544 | 20115 ft | 251 kts | 247° |
| 2026-04-26 16:32 | 22.71506 | -148.85255 | 20116 ft | 251 kts | 247° |
| 2026-04-26 16:33 | 22.70763 | -148.86966 | 20117 ft | 251 kts | 247° |
| 2026-04-26 16:33 | 22.70018 | -148.88676 | 20111 ft | 251 kts | 247° |
| 2026-04-26 16:33 | 22.69273 | -148.90388 | 20114 ft | 251 kts | 247° |
| 2026-04-26 16:33 | 22.68527 | -148.92101 | 20111 ft | 252 kts | 247° |
| 2026-04-26 16:34 | 22.67782 | -148.93814 | 20112 ft | 252 kts | 247° |
| 2026-04-26 16:34 | 22.67032 | -148.95529 | 20112 ft | 252 kts | 246° |
| 2026-04-26 16:34 | 22.66286 | -148.97243 | 20113 ft | 252 kts | 247° |
| 2026-04-26 16:34 | 22.65538 | -148.98958 | 20112 ft | 252 kts | 247° |
| 2026-04-26 16:35 | 22.64791 | -149.00675 | 20111 ft | 252 kts | 247° |
| 2026-04-26 16:35 | 22.64040 | -149.02394 | 20110 ft | 252 kts | 246° |
| 2026-04-26 16:35 | 22.63289 | -149.04111 | 20108 ft | 252 kts | 247° |
| 2026-04-26 16:35 | 22.62540 | -149.05829 | 20108 ft | 253 kts | 247° |
| 2026-04-26 16:36 | 22.61788 | -149.07549 | 20109 ft | 253 kts | 247° |
| 2026-04-26 16:36 | 22.61037 | -149.09269 | 20110 ft | 253 kts | 247° |
| 2026-04-26 16:36 | 22.60284 | -149.10990 | 20108 ft | 253 kts | 247° |
| 2026-04-26 16:36 | 22.59531 | -149.12712 | 20111 ft | 253 kts | 247° |
| 2026-04-26 16:37 | 22.58779 | -149.14435 | 20108 ft | 253 kts | 246° |
| 2026-04-26 16:37 | 22.58024 | -149.16158 | 20107 ft | 254 kts | 246° |
| 2026-04-26 16:37 | 22.57263 | -149.17897 | 20107 ft | 254 kts | 246° |
| 2026-04-26 16:37 | 22.56766 | -149.19032 | 20106 ft | 254 kts | 247° |
| 2026-04-26 16:38 | 22.55755 | -149.21341 | 20104 ft | 254 kts | 246° |
| 2026-04-26 16:38 | 22.54998 | -149.23067 | 20103 ft | 254 kts | 247° |
| 2026-04-26 16:38 | 22.54237 | -149.24803 | 20102 ft | 254 kts | 246° |
| 2026-04-26 16:38 | 22.53474 | -149.26542 | 20105 ft | 255 kts | 246° |
| 2026-04-26 16:39 | 22.52722 | -149.28259 | 20105 ft | 255 kts | 246° |
| 2026-04-26 16:39 | 22.51962 | -149.29988 | 20103 ft | 255 kts | 246° |
| 2026-04-26 16:39 | 22.51204 | -149.31716 | 20104 ft | 255 kts | 246° |
| 2026-04-26 16:39 | 22.50442 | -149.33450 | 20102 ft | 255 kts | 246° |
| 2026-04-26 16:40 | 22.49674 | -149.35199 | 20109 ft | 255 kts | 246° |
| 2026-04-26 16:40 | 22.48912 | -149.36935 | 20109 ft | 255 kts | 246° |
| 2026-04-26 16:40 | 22.48146 | -149.38676 | 20109 ft | 256 kts | 246° |
| 2026-04-26 16:40 | 22.47382 | -149.40411 | 20111 ft | 256 kts | 246° |
| 2026-04-26 16:41 | 22.46620 | -149.42143 | 20106 ft | 256 kts | 246° |
| 2026-04-26 16:41 | 22.45866 | -149.43859 | 20108 ft | 256 kts | 246° |
| 2026-04-26 16:41 | 22.45111 | -149.45573 | 20109 ft | 256 kts | 246° |
| 2026-04-26 16:41 | 22.44346 | -149.47311 | 20109 ft | 256 kts | 246° |
| 2026-04-26 16:42 | 22.43579 | -149.49051 | 20112 ft | 256 kts | 246° |
| 2026-04-26 16:42 | 22.43072 | -149.50203 | 20107 ft | 256 kts | 246° |
| 2026-04-26 16:42 | 22.42305 | -149.51943 | 20111 ft | 257 kts | 246° |
| 2026-04-26 16:42 | 22.41536 | -149.53685 | 20110 ft | 257 kts | 246° |
| 2026-04-26 16:43 | 22.40768 | -149.55428 | 20113 ft | 257 kts | 246° |
| 2026-04-26 16:43 | 22.39999 | -149.57169 | 20108 ft | 257 kts | 246° |
| 2026-04-26 16:43 | 22.39229 | -149.58913 | 20109 ft | 257 kts | 246° |
| 2026-04-26 16:43 | 22.38459 | -149.60657 | 20107 ft | 257 kts | 246° |
| 2026-04-26 16:44 | 22.37688 | -149.62402 | 20109 ft | 257 kts | 246° |
| 2026-04-26 16:44 | 22.36919 | -149.64147 | 20106 ft | 258 kts | 246° |
| 2026-04-26 16:44 | 22.36145 | -149.65896 | 20104 ft | 258 kts | 246° |
| 2026-04-26 16:44 | 22.35371 | -149.67642 | 20104 ft | 258 kts | 246° |
| 2026-04-26 16:45 | 22.34598 | -149.69393 | 20107 ft | 258 kts | 246° |
| 2026-04-26 16:45 | 22.33823 | -149.71141 | 20103 ft | 258 kts | 246° |
| 2026-04-26 16:45 | 22.33049 | -149.72892 | 20104 ft | 258 kts | 246° |
| 2026-04-26 16:45 | 22.32275 | -149.74643 | 20105 ft | 258 kts | 246° |
| 2026-04-26 16:46 | 22.31499 | -149.76393 | 20104 ft | 259 kts | 246° |
| 2026-04-26 16:46 | 22.30721 | -149.78144 | 20103 ft | 259 kts | 245° |
| 2026-04-26 16:46 | 22.29945 | -149.79897 | 20100 ft | 259 kts | 246° |
| 2026-04-26 16:46 | 22.29168 | -149.81650 | 20101 ft | 259 kts | 245° |
| 2026-04-26 16:47 | 22.28391 | -149.83402 | 20100 ft | 259 kts | 245° |
| 2026-04-26 16:47 | 22.27611 | -149.85159 | 20104 ft | 259 kts | 245° |
| 2026-04-26 16:47 | 22.26832 | -149.86914 | 20104 ft | 259 kts | 246° |
| 2026-04-26 16:47 | 22.26052 | -149.88671 | 20103 ft | 259 kts | 245° |
| 2026-04-26 16:48 | 22.25271 | -149.90427 | 20102 ft | 259 kts | 245° |
| 2026-04-26 16:48 | 22.24491 | -149.92183 | 20101 ft | 260 kts | 245° |
| 2026-04-26 16:48 | 22.23710 | -149.93941 | 20099 ft | 260 kts | 245° |
| 2026-04-26 16:48 | 22.22929 | -149.95698 | 20100 ft | 260 kts | 245° |
| 2026-04-26 16:49 | 22.22146 | -149.97455 | 20102 ft | 260 kts | 246° |
| 2026-04-26 16:49 | 22.21365 | -149.99215 | 20099 ft | 260 kts | 245° |
| 2026-04-26 16:49 | 22.20581 | -150.00972 | 20101 ft | 260 kts | 245° |
| 2026-04-26 16:49 | 22.19798 | -150.02731 | 20100 ft | 260 kts | 245° |
| 2026-04-26 16:50 | 22.19013 | -150.04493 | 20103 ft | 260 kts | 245° |
| 2026-04-26 16:50 | 22.18228 | -150.06253 | 20099 ft | 260 kts | 245° |
| 2026-04-26 16:50 | 22.17443 | -150.08016 | 20101 ft | 260 kts | 245° |
| 2026-04-26 16:50 | 22.16657 | -150.09777 | 20101 ft | 260 kts | 245° |
| 2026-04-26 16:51 | 22.15873 | -150.11535 | 20100 ft | 260 kts | 245° |
| 2026-04-26 16:51 | 22.15087 | -150.13299 | 20100 ft | 261 kts | 245° |
| 2026-04-26 16:51 | 22.14300 | -150.15058 | 20101 ft | 261 kts | 245° |
| 2026-04-26 16:51 | 22.13513 | -150.16820 | 20097 ft | 261 kts | 245° |
| 2026-04-26 16:52 | 22.12726 | -150.18582 | 20098 ft | 261 kts | 245° |
| 2026-04-26 16:52 | 22.12205 | -150.19748 | 20096 ft | 261 kts | 245° |
| 2026-04-26 16:52 | 22.11153 | -150.22104 | 20093 ft | 261 kts | 245° |
| 2026-04-26 16:52 | 22.10364 | -150.23867 | 20094 ft | 261 kts | 245° |
| 2026-04-26 16:53 | 22.09575 | -150.25629 | 20096 ft | 261 kts | 245° |
| 2026-04-26 16:53 | 22.08786 | -150.27394 | 20098 ft | 261 kts | 245° |
| 2026-04-26 16:53 | 22.07996 | -150.29158 | 20096 ft | 261 kts | 245° |
| 2026-04-26 16:53 | 22.07206 | -150.30921 | 20101 ft | 261 kts | 245° |
| 2026-04-26 16:54 | 22.06416 | -150.32685 | 20099 ft | 261 kts | 245° |
| 2026-04-26 16:54 | 22.05625 | -150.34450 | 20094 ft | 261 kts | 245° |
| 2026-04-26 16:54 | 22.04833 | -150.36216 | 20097 ft | 261 kts | 245° |
| 2026-04-26 16:54 | 22.04042 | -150.37980 | 20098 ft | 261 kts | 245° |
| 2026-04-26 16:55 | 22.03250 | -150.39746 | 20096 ft | 261 kts | 244° |
| 2026-04-26 16:55 | 22.02458 | -150.41509 | 20096 ft | 262 kts | 244° |
| 2026-04-26 16:55 | 22.01666 | -150.43274 | 20096 ft | 262 kts | 244° |
| 2026-04-26 16:55 | 22.00873 | -150.45040 | 20097 ft | 262 kts | 244° |
| 2026-04-26 16:56 | 21.99286 | -150.48572 | 20094 ft | 262 kts | 244° |
| 2026-04-26 16:56 | 21.98492 | -150.50337 | 20096 ft | 262 kts | 244° |
| 2026-04-26 16:56 | 21.97697 | -150.52104 | 20096 ft | 262 kts | 244° |
| 2026-04-26 16:57 | 21.96903 | -150.53872 | 20091 ft | 262 kts | 244° |
| 2026-04-26 16:57 | 21.96105 | -150.55642 | 20093 ft | 262 kts | 244° |
| 2026-04-26 16:57 | 21.94513 | -150.59178 | 20097 ft | 262 kts | 244° |
| 2026-04-26 16:58 | 21.93717 | -150.60946 | 20094 ft | 263 kts | 244° |
| 2026-04-26 16:58 | 21.93188 | -150.62119 | 20090 ft | 263 kts | 244° |
| 2026-04-26 16:58 | 21.91322 | -150.66257 | 20094 ft | 263 kts | 244° |
| 2026-04-26 16:59 | 21.90523 | -150.68029 | 20092 ft | 263 kts | 244° |
| 2026-04-26 16:59 | 21.88926 | -150.71568 | 20094 ft | 263 kts | 244° |
| 2026-04-26 17:00 | 21.87325 | -150.75111 | 20096 ft | 263 kts | 244° |
| 2026-04-26 17:00 | 21.85724 | -150.78652 | 20092 ft | 263 kts | 244° |
| 2026-04-26 17:00 | 21.84924 | -150.80423 | 20090 ft | 263 kts | 244° |
| 2026-04-26 17:01 | 21.84121 | -150.82195 | 20095 ft | 263 kts | 244° |
| 2026-04-26 17:01 | 21.83321 | -150.83965 | 20092 ft | 263 kts | 244° |
| 2026-04-26 17:01 | 21.82518 | -150.85738 | 20093 ft | 263 kts | 244° |
| 2026-04-26 17:01 | 21.81715 | -150.87511 | 20091 ft | 263 kts | 244° |
| 2026-04-26 17:02 | 21.80913 | -150.89283 | 20097 ft | 264 kts | 244° |
| 2026-04-26 17:02 | 21.80107 | -150.91056 | 20095 ft | 263 kts | 244° |
| 2026-04-26 17:02 | 21.79305 | -150.92827 | 20093 ft | 263 kts | 244° |
| 2026-04-26 17:02 | 21.78503 | -150.94600 | 20094 ft | 264 kts | 244° |
| 2026-04-26 17:03 | 21.77698 | -150.96372 | 20090 ft | 264 kts | 244° |
| 2026-04-26 17:03 | 21.76893 | -150.98144 | 20103 ft | 264 kts | 244° |
| 2026-04-26 17:03 | 21.76089 | -150.99919 | 20103 ft | 264 kts | 244° |
| 2026-04-26 17:03 | 21.75282 | -151.01692 | 20101 ft | 264 kts | 244° |
| 2026-04-26 17:04 | 21.74477 | -151.03466 | 20101 ft | 264 kts | 244° |
| 2026-04-26 17:04 | 21.73670 | -151.05240 | 20107 ft | 264 kts | 244° |
| 2026-04-26 17:04 | 21.72863 | -151.07016 | 20102 ft | 264 kts | 244° |
| 2026-04-26 17:04 | 21.72056 | -151.08789 | 20101 ft | 264 kts | 244° |
| 2026-04-26 17:05 | 21.71248 | -151.10567 | 20099 ft | 264 kts | 244° |
| 2026-04-26 17:05 | 21.70440 | -151.12343 | 20100 ft | 264 kts | 244° |
| 2026-04-26 17:05 | 21.69630 | -151.14120 | 20099 ft | 265 kts | 244° |
| 2026-04-26 17:05 | 21.68822 | -151.15895 | 20101 ft | 265 kts | 244° |
| 2026-04-26 17:06 | 21.68012 | -151.17673 | 20101 ft | 265 kts | 244° |
| 2026-04-26 17:06 | 21.67202 | -151.19451 | 20096 ft | 265 kts | 244° |
| 2026-04-26 17:06 | 21.66391 | -151.21230 | 20101 ft | 265 kts | 244° |
| 2026-04-26 17:06 | 21.65579 | -151.23008 | 20102 ft | 265 kts | 244° |
| 2026-04-26 17:07 | 21.64769 | -151.24787 | 20101 ft | 265 kts | 244° |
| 2026-04-26 17:07 | 21.63956 | -151.26567 | 20099 ft | 265 kts | 244° |
| 2026-04-26 17:07 | 21.63143 | -151.28348 | 20106 ft | 265 kts | 244° |
| 2026-04-26 17:07 | 21.62331 | -151.30125 | 20100 ft | 265 kts | 244° |
| 2026-04-26 17:08 | 21.61519 | -151.31904 | 20102 ft | 265 kts | 244° |
| 2026-04-26 17:08 | 21.60705 | -151.33684 | 20102 ft | 265 kts | 244° |
| 2026-04-26 17:08 | 21.59892 | -151.35464 | 20102 ft | 265 kts | 244° |
| 2026-04-26 17:08 | 21.59078 | -151.37245 | 20096 ft | 265 kts | 244° |
| 2026-04-26 17:09 | 21.58263 | -151.39024 | 20101 ft | 265 kts | 244° |
| 2026-04-26 17:09 | 21.57724 | -151.40203 | 20095 ft | 265 kts | 244° |
| 2026-04-26 17:09 | 21.56634 | -151.42584 | 20093 ft | 266 kts | 244° |
| 2026-04-26 17:09 | 21.55818 | -151.44366 | 20100 ft | 266 kts | 244° |
| 2026-04-26 17:10 | 21.55002 | -151.46147 | 20099 ft | 266 kts | 244° |
| 2026-04-26 17:10 | 21.54133 | -151.47892 | 20096 ft | 265 kts | 241° |
| 2026-04-26 17:10 | 21.53292 | -151.49651 | 20090 ft | 265 kts | 244° |
| 2026-04-26 17:10 | 21.52470 | -151.51419 | 20090 ft | 265 kts | 243° |
| 2026-04-26 17:11 | 21.51618 | -151.53174 | 20089 ft | 265 kts | 242° |
| 2026-04-26 17:11 | 21.50761 | -151.54927 | 20093 ft | 265 kts | 242° |
| 2026-04-26 17:11 | 21.49909 | -151.56685 | 20092 ft | 265 kts | 243° |
| 2026-04-26 17:11 | 21.49057 | -151.58445 | 20094 ft | 265 kts | 243° |
| 2026-04-26 17:12 | 21.47352 | -151.61959 | 20094 ft | 266 kts | 243° |
| 2026-04-26 17:12 | 21.46497 | -151.63721 | 20091 ft | 266 kts | 243° |
| 2026-04-26 17:13 | 21.44787 | -151.67242 | 20093 ft | 266 kts | 243° |
| 2026-04-26 17:13 | 21.43930 | -151.69005 | 20091 ft | 266 kts | 243° |
| 2026-04-26 17:13 | 21.42218 | -151.72528 | 20093 ft | 266 kts | 243° |
| 2026-04-26 17:14 | 21.41361 | -151.74291 | 20096 ft | 266 kts | 243° |
| 2026-04-26 17:14 | 21.39646 | -151.77814 | 20098 ft | 267 kts | 243° |
| 2026-04-26 17:14 | 21.38785 | -151.79583 | 20093 ft | 267 kts | 243° |
| 2026-04-26 17:15 | 21.37065 | -151.83113 | 20097 ft | 267 kts | 243° |
| 2026-04-26 17:15 | 21.36206 | -151.84877 | 20099 ft | 267 kts | 243° |
| 2026-04-26 17:15 | 21.35346 | -151.86640 | 20094 ft | 267 kts | 243° |
| 2026-04-26 17:16 | 21.34487 | -151.88402 | 20091 ft | 267 kts | 243° |
| 2026-04-26 17:16 | 21.33627 | -151.90165 | 20093 ft | 267 kts | 243° |
| 2026-04-26 17:16 | 21.32766 | -151.91929 | 20094 ft | 267 kts | 243° |
| 2026-04-26 17:16 | 21.31904 | -151.93691 | 20095 ft | 267 kts | 245° |
| 2026-04-26 17:17 | 21.31046 | -151.95452 | 20092 ft | 266 kts | 245° |
| 2026-04-26 17:17 | 21.30187 | -151.97212 | 20097 ft | 266 kts | 245° |
| 2026-04-26 17:17 | 21.29328 | -151.98968 | 20093 ft | 266 kts | 245° |
| 2026-04-26 17:17 | 21.28469 | -152.00722 | 20091 ft | 266 kts | 245° |
| 2026-04-26 17:18 | 21.27613 | -152.02477 | 20089 ft | 266 kts | 245° |
| 2026-04-26 17:18 | 21.26756 | -152.04230 | 20087 ft | 266 kts | 245° |
| 2026-04-26 17:18 | 21.25900 | -152.05982 | 20090 ft | 265 kts | 244° |
| 2026-04-26 17:18 | 21.25040 | -152.07734 | 20084 ft | 265 kts | 244° |
| 2026-04-26 17:19 | 21.23325 | -152.11238 | 20082 ft | 265 kts | 244° |
| 2026-04-26 17:19 | 21.22757 | -152.12397 | 20078 ft | 265 kts | 244° |
| 2026-04-26 17:19 | 21.21899 | -152.14147 | 20083 ft | 265 kts | 245° |
| 2026-04-26 17:20 | 21.21042 | -152.15895 | 20082 ft | 265 kts | 244° |
| 2026-04-26 17:20 | 21.20461 | -152.17076 | 20083 ft | 265 kts | 244° |
| 2026-04-26 17:20 | 21.19328 | -152.19393 | 20079 ft | 265 kts | 244° |
| 2026-04-26 17:20 | 21.18470 | -152.21140 | 20081 ft | 265 kts | 245° |
| 2026-04-26 17:21 | 21.17613 | -152.22889 | 20081 ft | 265 kts | 245° |
| 2026-04-26 17:21 | 21.16752 | -152.24639 | 20079 ft | 265 kts | 244° |
| 2026-04-26 17:21 | 21.15892 | -152.26389 | 20082 ft | 265 kts | 244° |
| 2026-04-26 17:21 | 21.15036 | -152.28136 | 20075 ft | 265 kts | 245° |
| 2026-04-26 17:22 | 21.14175 | -152.29884 | 20072 ft | 265 kts | 245° |
| 2026-04-26 17:22 | 21.13315 | -152.31632 | 20080 ft | 265 kts | 245° |
| 2026-04-26 17:22 | 21.12458 | -152.33377 | 20077 ft | 265 kts | 245° |
| 2026-04-26 17:22 | 21.11598 | -152.35125 | 20078 ft | 265 kts | 244° |
| 2026-04-26 17:23 | 21.10737 | -152.36873 | 20078 ft | 265 kts | 244° |
| 2026-04-26 17:23 | 21.09878 | -152.38620 | 20080 ft | 265 kts | 244° |
| 2026-04-26 17:23 | 21.09018 | -152.40365 | 20077 ft | 265 kts | 244° |
| 2026-04-26 17:23 | 21.08146 | -152.42137 | 20081 ft | 265 kts | 244° |
| 2026-04-26 17:24 | 21.07284 | -152.43884 | 20080 ft | 265 kts | 245° |
| 2026-04-26 17:24 | 21.06424 | -152.45631 | 20073 ft | 265 kts | 244° |
| 2026-04-26 17:24 | 21.05562 | -152.47379 | 20073 ft | 265 kts | 245° |
| 2026-04-26 17:24 | 21.04703 | -152.49125 | 20075 ft | 265 kts | 245° |
| 2026-04-26 17:25 | 21.03849 | -152.50849 | 20075 ft | 265 kts | 244° |
| 2026-04-26 17:25 | 21.02976 | -152.52616 | 20078 ft | 265 kts | 245° |
| 2026-04-26 17:25 | 21.02116 | -152.54361 | 20077 ft | 265 kts | 244° |
| 2026-04-26 17:25 | 21.01254 | -152.56109 | 20075 ft | 265 kts | 245° |
| 2026-04-26 17:26 | 21.00391 | -152.57856 | 20078 ft | 265 kts | 244° |
| 2026-04-26 17:26 | 20.99537 | -152.59580 | 20074 ft | 265 kts | 245° |
| 2026-04-26 17:26 | 20.98664 | -152.61351 | 20073 ft | 266 kts | 244° |
| 2026-04-26 17:26 | 20.97812 | -152.63073 | 20073 ft | 266 kts | 245° |
| 2026-04-26 17:27 | 20.96945 | -152.64822 | 20074 ft | 266 kts | 244° |
| 2026-04-26 17:27 | 20.96081 | -152.66568 | 20076 ft | 266 kts | 244° |
| 2026-04-26 17:27 | 20.95217 | -152.68316 | 20074 ft | 266 kts | 244° |
| 2026-04-26 17:27 | 20.94341 | -152.70087 | 20075 ft | 266 kts | 244° |
| 2026-04-26 17:28 | 20.93488 | -152.71809 | 20073 ft | 266 kts | 244° |
| 2026-04-26 17:28 | 20.92622 | -152.73558 | 20069 ft | 266 kts | 244° |
| 2026-04-26 17:28 | 20.91754 | -152.75306 | 20075 ft | 266 kts | 244° |
| 2026-04-26 17:28 | 20.90886 | -152.77055 | 20070 ft | 266 kts | 245° |
| 2026-04-26 17:29 | 20.90019 | -152.78805 | 20074 ft | 266 kts | 244° |
| 2026-04-26 17:29 | 20.89432 | -152.79990 | 20075 ft | 266 kts | 244° |
| 2026-04-26 17:29 | 20.88282 | -152.82308 | 20072 ft | 266 kts | 244° |
| 2026-04-26 17:29 | 20.87413 | -152.84056 | 20075 ft | 266 kts | 244° |
| 2026-04-26 17:30 | 20.86546 | -152.85803 | 20070 ft | 266 kts | 244° |
| 2026-04-26 17:30 | 20.85678 | -152.87553 | 20071 ft | 266 kts | 244° |
| 2026-04-26 17:30 | 20.84808 | -152.89304 | 20073 ft | 266 kts | 244° |
| 2026-04-26 17:30 | 20.83937 | -152.91053 | 20068 ft | 266 kts | 245° |
| 2026-04-26 17:31 | 20.83069 | -152.92801 | 20067 ft | 266 kts | 244° |
| 2026-04-26 17:31 | 20.82199 | -152.94551 | 20064 ft | 267 kts | 244° |
| 2026-04-26 17:31 | 20.81327 | -152.96303 | 20069 ft | 267 kts | 244° |
| 2026-04-26 17:31 | 20.80457 | -152.98053 | 20062 ft | 267 kts | 244° |
| 2026-04-26 17:32 | 20.79586 | -152.99803 | 20065 ft | 266 kts | 244° |
| 2026-04-26 17:32 | 20.78906 | -153.01625 | 20070 ft | 263 kts | 254° |
| 2026-04-26 17:32 | 20.78322 | -153.03481 | 20066 ft | 263 kts | 253° |
| 2026-04-26 17:32 | 20.77711 | -153.05325 | 20070 ft | 264 kts | 252° |
| 2026-04-26 17:33 | 20.77086 | -153.07170 | 20069 ft | 264 kts | 252° |
| 2026-04-26 17:33 | 20.76468 | -153.09018 | 20069 ft | 264 kts | 253° |
| 2026-04-26 17:33 | 20.75843 | -153.10891 | 20071 ft | 264 kts | 253° |
| 2026-04-26 17:34 | 20.74608 | -153.14593 | 20070 ft | 265 kts | 253° |
| 2026-04-26 17:34 | 20.73988 | -153.16445 | 20069 ft | 265 kts | 253° |
| 2026-04-26 17:34 | 20.73370 | -153.18297 | 20067 ft | 265 kts | 253° |
| 2026-04-26 17:34 | 20.72750 | -153.20148 | 20070 ft | 265 kts | 252° |
| 2026-04-26 17:35 | 20.72130 | -153.22004 | 20072 ft | 265 kts | 253° |
| 2026-04-26 17:35 | 20.71509 | -153.23858 | 20074 ft | 265 kts | 252° |
| 2026-04-26 17:35 | 20.70887 | -153.25715 | 20072 ft | 265 kts | 252° |
| 2026-04-26 17:35 | 20.70264 | -153.27571 | 20073 ft | 266 kts | 253° |
| 2026-04-26 17:36 | 20.69643 | -153.29425 | 20069 ft | 266 kts | 253° |
| 2026-04-26 17:36 | 20.69020 | -153.31287 | 20072 ft | 266 kts | 253° |
| 2026-04-26 17:36 | 20.68397 | -153.33146 | 20073 ft | 266 kts | 252° |
| 2026-04-26 17:36 | 20.67779 | -153.34980 | 20070 ft | 266 kts | 253° |
| 2026-04-26 17:37 | 20.67147 | -153.36864 | 20070 ft | 266 kts | 252° |
| 2026-04-26 17:37 | 20.66525 | -153.38722 | 20076 ft | 266 kts | 252° |
| 2026-04-26 17:37 | 20.65900 | -153.40580 | 20069 ft | 266 kts | 253° |
| 2026-04-26 17:38 | 20.64650 | -153.44298 | 20071 ft | 266 kts | 252° |
| 2026-04-26 17:38 | 20.64023 | -153.46160 | 20070 ft | 266 kts | 252° |
| 2026-04-26 17:38 | 20.63398 | -153.48018 | 20074 ft | 266 kts | 252° |
| 2026-04-26 17:38 | 20.62781 | -153.49851 | 20073 ft | 266 kts | 252° |
| 2026-04-26 17:39 | 20.62155 | -153.51712 | 20074 ft | 266 kts | 252° |
| 2026-04-26 17:39 | 20.61529 | -153.53569 | 20070 ft | 266 kts | 252° |
| 2026-04-26 17:39 | 20.60903 | -153.55427 | 20067 ft | 266 kts | 252° |
| 2026-04-26 17:39 | 20.60275 | -153.57288 | 20075 ft | 266 kts | 252° |
| 2026-04-26 17:40 | 20.59648 | -153.59146 | 20067 ft | 266 kts | 252° |
| 2026-04-26 17:40 | 20.59224 | -153.60404 | 20069 ft | 266 kts | 252° |
| 2026-04-26 17:40 | 20.58391 | -153.62870 | 20071 ft | 266 kts | 252° |
| 2026-04-26 17:40 | 20.57762 | -153.64731 | 20071 ft | 266 kts | 252° |
| 2026-04-26 17:41 | 20.57134 | -153.66591 | 20075 ft | 267 kts | 252° |
| 2026-04-26 17:41 | 20.56507 | -153.68450 | 20067 ft | 265 kts | 252° |
| 2026-04-26 17:41 | 20.55889 | -153.70273 | 20051 ft | 258 kts | 252° |
| 2026-04-26 17:41 | 20.55289 | -153.72035 | 20043 ft | 246 kts | 252° |
| 2026-04-26 17:42 | 20.54718 | -153.73732 | 20053 ft | 240 kts | 253° |
| 2026-04-26 17:42 | 20.54156 | -153.75397 | 20055 ft | 237 kts | 253° |
| 2026-04-26 17:42 | 20.53598 | -153.77039 | 20056 ft | 234 kts | 252° |
| 2026-04-26 17:42 | 20.53049 | -153.78664 | 20061 ft | 231 kts | 253° |
| 2026-04-26 17:43 | 20.52505 | -153.80272 | 20062 ft | 229 kts | 252° |
| 2026-04-26 17:43 | 20.51958 | -153.81882 | 19950 ft | 233 kts | 252° |
| 2026-04-26 17:43 | 20.51404 | -153.83518 | 19846 ft | 236 kts | 252° |
| 2026-04-26 17:43 | 20.50843 | -153.85177 | 19743 ft | 239 kts | 252° |
| 2026-04-26 17:44 | 20.50274 | -153.86848 | 19640 ft | 241 kts | 252° |
| 2026-04-26 17:44 | 20.49700 | -153.88537 | 19535 ft | 243 kts | 252° |
| 2026-04-26 17:44 | 20.49124 | -153.90236 | 19432 ft | 245 kts | 252° |
| 2026-04-26 17:44 | 20.48543 | -153.91950 | 19327 ft | 246 kts | 252° |
| 2026-04-26 17:45 | 20.47957 | -153.93672 | 19217 ft | 248 kts | 252° |
| 2026-04-26 17:45 | 20.47369 | -153.95403 | 19113 ft | 249 kts | 252° |
| 2026-04-26 17:45 | 20.46775 | -153.97145 | 19007 ft | 250 kts | 252° |
| 2026-04-26 17:45 | 20.46182 | -153.98893 | 18894 ft | 251 kts | 252° |
| 2026-04-26 17:46 | 20.45586 | -154.00645 | 18787 ft | 251 kts | 252° |
| 2026-04-26 17:46 | 20.44987 | -154.02398 | 18675 ft | 252 kts | 252° |
| 2026-04-26 17:46 | 20.44389 | -154.04155 | 18564 ft | 253 kts | 252° |
| 2026-04-26 17:46 | 20.43790 | -154.05916 | 18458 ft | 253 kts | 252° |
| 2026-04-26 17:47 | 20.43190 | -154.07677 | 18346 ft | 253 kts | 252° |
| 2026-04-26 17:47 | 20.42994 | -154.08250 | 18306 ft | 253 kts | 252° |
| 2026-04-26 17:47 | 20.41986 | -154.11206 | 18088 ft | 253 kts | 251° |
| 2026-04-26 17:47 | 20.41385 | -154.12968 | 17969 ft | 253 kts | 251° |
| 2026-04-26 17:48 | 20.40783 | -154.14730 | 17833 ft | 253 kts | 252° |
| 2026-04-26 17:48 | 20.40183 | -154.16489 | 17714 ft | 253 kts | 252° |
| 2026-04-26 17:48 | 20.39582 | -154.18248 | 17595 ft | 252 kts | 251° |
| 2026-04-26 17:48 | 20.38988 | -154.19985 | 17463 ft | 252 kts | 251° |
| 2026-04-26 17:49 | 20.38388 | -154.21741 | 17345 ft | 252 kts | 251° |
| 2026-04-26 17:49 | 20.37788 | -154.23493 | 17218 ft | 252 kts | 251° |
| 2026-04-26 17:49 | 20.37190 | -154.25245 | 17096 ft | 251 kts | 251° |
| 2026-04-26 17:49 | 20.36592 | -154.26993 | 16975 ft | 251 kts | 251° |
| 2026-04-26 17:50 | 20.35992 | -154.28743 | 16851 ft | 251 kts | 251° |
| 2026-04-26 17:50 | 20.35395 | -154.30485 | 16725 ft | 250 kts | 251° |
| 2026-04-26 17:50 | 20.34800 | -154.32226 | 16604 ft | 250 kts | 251° |
| 2026-04-26 17:50 | 20.34204 | -154.33964 | 16482 ft | 250 kts | 251° |
| 2026-04-26 17:51 | 20.33609 | -154.35698 | 16362 ft | 249 kts | 251° |
| 2026-04-26 17:51 | 20.33014 | -154.37430 | 16243 ft | 249 kts | 251° |
| 2026-04-26 17:51 | 20.32421 | -154.39162 | 16106 ft | 249 kts | 251° |
| 2026-04-26 17:51 | 20.31825 | -154.40898 | 15966 ft | 249 kts | 251° |
| 2026-04-26 17:52 | 20.31229 | -154.42633 | 15823 ft | 250 kts | 251° |
| 2026-04-26 17:52 | 20.30631 | -154.44372 | 15684 ft | 250 kts | 251° |
| 2026-04-26 17:52 | 20.30036 | -154.46106 | 15545 ft | 250 kts | 251° |
| 2026-04-26 17:52 | 20.29440 | -154.47843 | 15401 ft | 250 kts | 251° |
| 2026-04-26 17:53 | 20.28843 | -154.49577 | 15265 ft | 249 kts | 251° |
| 2026-04-26 17:53 | 20.28246 | -154.51312 | 15128 ft | 249 kts | 251° |
| 2026-04-26 17:53 | 20.27658 | -154.53023 | 14988 ft | 249 kts | 251° |
| 2026-04-26 17:54 | 20.26466 | -154.56484 | 14717 ft | 248 kts | 250° |
| 2026-04-26 17:54 | 20.25871 | -154.58210 | 14577 ft | 248 kts | 251° |
| 2026-04-26 17:54 | 20.25278 | -154.59932 | 14441 ft | 248 kts | 250° |
| 2026-04-26 17:54 | 20.24684 | -154.61654 | 14305 ft | 247 kts | 250° |
| 2026-04-26 17:55 | 20.24091 | -154.63373 | 14166 ft | 247 kts | 250° |
| 2026-04-26 17:55 | 20.23500 | -154.65088 | 14034 ft | 246 kts | 250° |
| 2026-04-26 17:55 | 20.22902 | -154.66820 | 13900 ft | 246 kts | 250° |
| 2026-04-26 17:55 | 20.22320 | -154.68506 | 13754 ft | 245 kts | 250° |
| 2026-04-26 17:56 | 20.21732 | -154.70209 | 13602 ft | 245 kts | 250° |
| 2026-04-26 17:56 | 20.20558 | -154.73608 | 13298 ft | 244 kts | 250° |
| 2026-04-26 17:57 | 20.19388 | -154.76990 | 12998 ft | 243 kts | 250° |
| 2026-04-26 17:57 | 20.18803 | -154.78680 | 12849 ft | 243 kts | 250° |
| 2026-04-26 17:57 | 20.18222 | -154.80362 | 12703 ft | 242 kts | 250° |
| 2026-04-26 17:57 | 20.17639 | -154.82043 | 12553 ft | 242 kts | 250° |
| 2026-04-26 17:58 | 20.15902 | -154.87061 | 12111 ft | 240 kts | 250° |
| 2026-04-26 17:59 | 20.14748 | -154.90387 | 11822 ft | 239 kts | 249° |
| 2026-04-26 17:59 | 20.14357 | -154.91512 | 11727 ft | 239 kts | 249° |
| 2026-04-26 17:59 | 20.13783 | -154.93169 | 11589 ft | 238 kts | 249° |
| 2026-04-26 17:59 | 20.13209 | -154.94821 | 11445 ft | 238 kts | 249° |
| 2026-04-26 18:00 | 20.12644 | -154.96448 | 11303 ft | 237 kts | 249° |
| 2026-04-26 18:00 | 20.12073 | -154.98093 | 11162 ft | 237 kts | 249° |
| 2026-04-26 18:00 | 20.11502 | -154.99734 | 11025 ft | 236 kts | 249° |
| 2026-04-26 18:00 | 20.10934 | -155.01370 | 10886 ft | 236 kts | 249° |
| 2026-04-26 18:01 | 20.10366 | -155.03005 | 10742 ft | 235 kts | 249° |
| 2026-04-26 18:01 | 20.09799 | -155.04635 | 10607 ft | 235 kts | 249° |
| 2026-04-26 18:01 | 20.09233 | -155.06261 | 10459 ft | 234 kts | 249° |
| 2026-04-26 18:01 | 20.08669 | -155.07881 | 10331 ft | 233 kts | 249° |
| 2026-04-26 18:02 | 20.08107 | -155.09497 | 10196 ft | 233 kts | 249° |
| 2026-04-26 18:02 | 20.07727 | -155.10587 | 10097 ft | 233 kts | 249° |
| 2026-04-26 18:02 | 20.06983 | -155.12721 | 9918 ft | 232 kts | 249° |
| 2026-04-26 18:02 | 20.06423 | -155.14328 | 9758 ft | 232 kts | 249° |
| 2026-04-26 18:03 | 20.05864 | -155.15935 | 9602 ft | 231 kts | 249° |
| 2026-04-26 18:03 | 20.05304 | -155.17537 | 9451 ft | 231 kts | 249° |
| 2026-04-26 18:03 | 20.04746 | -155.19136 | 9300 ft | 231 kts | 249° |
| 2026-04-26 18:03 | 20.04189 | -155.20734 | 9148 ft | 231 kts | 249° |
| 2026-04-26 18:04 | 20.03629 | -155.22337 | 8999 ft | 231 kts | 249° |
| 2026-04-26 18:04 | 20.03073 | -155.23930 | 8850 ft | 230 kts | 248° |
| 2026-04-26 18:04 | 20.02515 | -155.25527 | 8716 ft | 229 kts | 249° |
| 2026-04-26 18:05 | 20.02022 | -155.28838 | 8452 ft | 228 kts | 268° |
| 2026-04-26 18:05 | 20.01965 | -155.30518 | 8336 ft | 227 kts | 265° |
| 2026-04-26 18:05 | 20.01862 | -155.32193 | 8229 ft | 227 kts | 265° |
| 2026-04-26 18:05 | 20.01758 | -155.33869 | 8116 ft | 227 kts | 265° |
| 2026-04-26 18:06 | 20.01660 | -155.35548 | 8004 ft | 228 kts | 265° |
| 2026-04-26 18:06 | 20.01564 | -155.37227 | 7897 ft | 227 kts | 265° |
| 2026-04-26 18:06 | 20.01465 | -155.38907 | 7792 ft | 228 kts | 266° |
| 2026-04-26 18:06 | 20.01366 | -155.40571 | 7683 ft | 229 kts | 264° |
| 2026-04-26 18:07 | 20.01265 | -155.42286 | 7573 ft | 230 kts | 265° |
| 2026-04-26 18:07 | 20.01172 | -155.43992 | 7469 ft | 232 kts | 265° |
| 2026-04-26 18:07 | 20.01070 | -155.45698 | 7347 ft | 231 kts | 265° |
| 2026-04-26 18:07 | 20.01002 | -155.46819 | 7279 ft | 230 kts | 265° |
| 2026-04-26 18:08 | 20.00868 | -155.49084 | 7123 ft | 229 kts | 265° |
| 2026-04-26 18:08 | 20.00769 | -155.50776 | 7009 ft | 231 kts | 265° |
| 2026-04-26 18:08 | 20.00679 | -155.52457 | 6905 ft | 230 kts | 265° |
| 2026-04-26 18:08 | 20.00569 | -155.54160 | 6781 ft | 231 kts | 265° |
| 2026-04-26 18:09 | 20.00459 | -155.55855 | 6669 ft | 229 kts | 265° |
| 2026-04-26 18:09 | 20.00373 | -155.57548 | 6533 ft | 229 kts | 266° |
| 2026-04-26 18:09 | 20.00276 | -155.59237 | 6415 ft | 228 kts | 266° |
| 2026-04-26 18:09 | 20.00161 | -155.60923 | 6280 ft | 228 kts | 265° |
| 2026-04-26 18:10 | 20.00064 | -155.62605 | 6155 ft | 227 kts | 266° |
| 2026-04-26 18:10 | 19.99962 | -155.64284 | 6037 ft | 227 kts | 265° |
| 2026-04-26 18:10 | 19.99908 | -155.65239 | 5962 ft | 227 kts | 266° |
| 2026-04-26 18:11 | 19.99827 | -155.66520 | 5836 ft | 226 kts | 264° |
| 2026-04-26 18:11 | 19.99561 | -155.68161 | 5692 ft | 225 kts | 256° |
| 2026-04-26 18:11 | 19.99233 | -155.69783 | 5558 ft | 224 kts | 258° |
| 2026-04-26 18:11 | 19.98933 | -155.71409 | 5431 ft | 224 kts | 258° |
| 2026-04-26 18:12 | 19.98622 | -155.73025 | 5297 ft | 222 kts | 257° |
| 2026-04-26 18:12 | 19.98304 | -155.74630 | 5168 ft | 222 kts | 257° |
| 2026-04-26 18:12 | 19.97987 | -155.76232 | 5038 ft | 221 kts | 257° |
| 2026-04-26 18:12 | 19.97672 | -155.77825 | 4897 ft | 220 kts | 257° |
| 2026-04-26 18:13 | 19.97359 | -155.79420 | 4766 ft | 220 kts | 257° |
| 2026-04-26 18:13 | 19.97052 | -155.80994 | 4624 ft | 220 kts | 257° |
| 2026-04-26 18:13 | 19.96738 | -155.82582 | 4468 ft | 219 kts | 257° |
| 2026-04-26 18:13 | 19.96524 | -155.83651 | 4386 ft | 218 kts | 257° |
| 2026-04-26 18:14 | 19.96128 | -155.85679 | 4189 ft | 204 kts | 257° |
| 2026-04-26 18:14 | 19.95839 | -155.87126 | 4031 ft | 197 kts | 257° |
| 2026-04-26 18:14 | 19.95562 | -155.88535 | 3877 ft | 192 kts | 257° |
| 2026-04-26 18:14 | 19.95292 | -155.89903 | 3730 ft | 185 kts | 257° |
| 2026-04-26 18:15 | 19.95033 | -155.91214 | 3566 ft | 176 kts | 257° |
| 2026-04-26 18:15 | 19.94788 | -155.92452 | 3394 ft | 166 kts | 257° |
| 2026-04-26 18:15 | 19.94556 | -155.93627 | 3204 ft | 158 kts | 257° |
| 2026-04-26 18:15 | 19.94336 | -155.94741 | 2995 ft | 152 kts | 257° |
| 2026-04-26 18:16 | 19.94127 | -155.95803 | 2816 ft | 140 kts | 256° |
| 2026-04-26 18:16 | 19.93738 | -155.97751 | 2357 ft | 130 kts | 257° |
| 2026-04-26 18:16 | 19.93553 | -155.98676 | 2199 ft | 133 kts | 257° |
| 2026-04-26 18:17 | 19.93373 | -155.99608 | 2460 ft | 130 kts | 258° |
| 2026-04-26 18:17 | 19.93174 | -156.00587 | 2692 ft | 139 kts | 257° |
| 2026-04-26 18:17 | 19.92971 | -156.01630 | 2907 ft | 149 kts | 257° |
| 2026-04-26 18:17 | 19.92749 | -156.02740 | 3065 ft | 157 kts | 256° |
| 2026-04-26 18:18 | 19.92515 | -156.03910 | 3008 ft | 164 kts | 256° |
| 2026-04-26 18:18 | 19.92282 | -156.05077 | 2983 ft | 156 kts | 256° |
| 2026-04-26 18:18 | 19.92076 | -156.06130 | 2802 ft | 140 kts | 257° |
| 2026-04-26 18:18 | 19.91878 | -156.07152 | 2439 ft | 141 kts | 257° |
| 2026-04-26 18:19 | 19.91692 | -156.08119 | 2225 ft | 129 kts | 258° |
| 2026-04-26 18:19 | 19.91512 | -156.09053 | 1913 ft | 127 kts | 258° |
| 2026-04-26 18:19 | 19.91107 | -156.09874 | 1477 ft | 131 kts | 219° |
| 2026-04-26 18:19 | 19.90268 | -156.10161 | 1154 ft | 127 kts | 173° |
| 2026-04-26 18:20 | 19.89460 | -156.10076 | 1172 ft | 113 kts | 171° |
| 2026-04-26 18:20 | 19.88659 | -156.10009 | 972 ft | 120 kts | 174° |
| 2026-04-26 18:20 | 19.87831 | -156.09932 | 856 ft | 116 kts | 167° |
| 2026-04-26 18:20 | 19.87331 | -156.09662 | 732 ft | 124 kts | 140° |
| 2026-04-26 18:21 | 19.86355 | -156.09073 | 1055 ft | 122 kts | 149° |
| 2026-04-26 18:21 | 19.85589 | -156.08617 | 1237 ft | 131 kts | 149° |
| 2026-04-26 18:21 | 19.84762 | -156.08126 | 1473 ft | 141 kts | 149° |
| 2026-04-26 18:21 | 19.83882 | -156.07598 | 1752 ft | 150 kts | 149° |
| 2026-04-26 18:22 | 19.83063 | -156.06868 | 1906 ft | 160 kts | 123° |
| 2026-04-26 18:22 | 19.82756 | -156.05785 | 1615 ft | 155 kts | 89° |
| 2026-04-26 18:22 | 19.82812 | -156.04698 | 1352 ft | 137 kts | 99° |
| 2026-04-26 18:22 | 19.82342 | -156.03905 | 1081 ft | 124 kts | 147° |
| 2026-04-26 18:23 | 19.81478 | -156.03712 | 1008 ft | 136 kts | 183° |
| 2026-04-26 18:23 | 19.80593 | -156.03858 | 975 ft | 118 kts | 191° |
| 2026-04-26 18:23 | 19.79798 | -156.04000 | 699 ft | 116 kts | 187° |
| 2026-04-26 18:23 | 19.79601 | -156.04028 | 683 ft | 113 kts | 188° |
| 2026-04-26 18:24 | 19.78975 | -156.04109 | 538 ft | 109 kts | 184° |
| 2026-04-26 18:24 | 19.78201 | -156.04178 | 478 ft | 114 kts | 183° |
| 2026-04-26 18:24 | 19.77402 | -156.04231 | 402 ft | 111 kts | 185° |
| 2026-04-26 18:25 | 19.76676 | -156.04309 | 303 ft | 106 kts | 185° |
| 2026-04-26 18:25 | 19.75939 | -156.04378 | 217 ft | 108 kts | 185° |
| 2026-04-26 18:25 | 19.75211 | -156.04444 | 70 ft | 103 kts | 186° |
| 2026-04-26 18:25 | 19.74547 | -156.04506 | 47 ft | 88 kts | 185° |
| 2026-04-26 18:26 | 19.74068 | -156.04547 | 45 ft | 54 kts | 185° |
| 2026-04-26 18:26 | 19.73737 | -156.04580 | 45 ft | 26 kts | 184° |
| 2026-04-26 18:26 | 19.73610 | -156.04537 | 45 ft | 17 kts | 102° |
| 2026-04-26 18:26 | 19.73604 | -156.04478 | 45 ft | 18 kts | 93° |
| 2026-04-26 18:27 | 19.73615 | -156.04346 | 45 ft | 19 kts | 42° |
| 2026-04-26 18:27 | 19.73763 | -156.04319 | 43 ft | 24 kts | 6° |
| 2026-04-26 18:27 | 19.73934 | -156.04304 | 42 ft | 23 kts | 5° |
| 2026-04-26 18:27 | 19.74069 | -156.04293 | 43 ft | 16 kts | 4° |
| 2026-04-26 18:28 | 19.74111 | -156.04249 | 43 ft | 3 kts | 117° |
| 2026-04-26 18:28 | 19.74090 | -156.04229 | 43 ft | 9 kts | 159° |
| 2026-04-26 18:28 | 19.73996 | -156.04237 | 44 ft | 17 kts | 186° |
| 2026-04-26 18:28 | 19.73863 | -156.04245 | 43 ft | 19 kts | 186° |
| 2026-04-26 18:29 | 19.73773 | -156.04210 | 45 ft | 7 kts | 134° |
| 2026-04-26 18:29 | 19.73763 | -156.04199 | 46 ft | 0 kts | 135° |